Observation data for Claude 12 Southwest on 05/14/2018      Previous  Date  Next       Current Mesonet Observations  Soil Data  Daily Summary Page  Observations in Plain Language
KCL1 140500Z 15010KT 21/16 A2996 RMK A01 T02080158  RH  073%=      5-min Rain = 0
KCL1 140501Z 15009KT 21/16 A2996 RMK A01 T02080158  RH  073%=      5-min Rain = 0
KCL1 140502Z 15008KT 21/16 A2996 RMK A01 T02080158  RH  073%=      5-min Rain = 0
KCL1 140503Z 15011G17KT 21/16 A2996 RMK A01 T02080158  RH  073%=      5-min Rain = 0
KCL1 140504Z 15011KT 21/16 A2996 RMK A01 T02080158  RH  073%=      5-min Rain = 0
KCL1 140505Z 15012KT 21/16 A2995 RMK A01 T02080158  RH  073%=      5-min Rain = 0
KCL1 140506Z 15010KT 21/16 A2996 RMK A01 T02080158  RH  073%=      5-min Rain = 0
KCL1 140507Z 15010KT 21/16 A2995 RMK A01 T02080158  RH  073%=      5-min Rain = 0
KCL1 140508Z 14011KT 21/16 A2995 RMK A01 T02080158  RH  073%=      5-min Rain = 0
KCL1 140509Z 14011KT 21/16 A2995 RMK A01 T02080158  RH  073%=      5-min Rain = 0
KCL1 140510Z 14010KT 21/16 A2995 RMK A01 T02080158  RH  073%=      5-min Rain = 0
KCL1 140511Z 14010KT 21/16 A2995 RMK A01 T02080157  RH  073%=      5-min Rain = 0
KCL1 140512Z 15010KT 21/16 A2995 RMK A01 T02080157  RH  073%=      5-min Rain = 0
KCL1 140513Z 14012G17KT 21/16 A2995 RMK A01 T02070157  RH  073%=      5-min Rain = 0
KCL1 140514Z 14012KT 21/16 A2995 RMK A01 T02070157  RH  073%=      5-min Rain = 0
KCL1 140515Z 15011KT 21/16 A2995 RMK A01 T02070157  RH  073%=      5-min Rain = 0
KCL1 140516Z 16009KT 21/16 A2995 RMK A01 T02070157  RH  073%=      5-min Rain = 0
KCL1 140517Z 15008KT 21/16 A2995 RMK A01 T02070157  RH  073%=      5-min Rain = 0
KCL1 140518Z 15009KT 21/16 A2995 RMK A01 T02070157  RH  073%=      5-min Rain = 0
KCL1 140519Z 15011KT 21/16 A2995 RMK A01 T02070157  RH  073%=      5-min Rain = 0
KCL1 140520Z 15010KT 21/16 A2995 RMK A01 T02070157  RH  073%=      5-min Rain = 0
KCL1 140521Z 15011KT 21/16 A2995 RMK A01 T02070157  RH  073%=      5-min Rain = 0
KCL1 140522Z 14009KT 21/16 A2995 RMK A01 T02070157  RH  073%=      5-min Rain = 0
KCL1 140523Z 14012KT 21/16 A2995 RMK A01 T02070157  RH  073%=      5-min Rain = 0
KCL1 140524Z 14011KT 21/16 A2995 RMK A01 T02070157  RH  073%=      5-min Rain = 0
KCL1 140525Z 15009KT 21/16 A2995 RMK A01 T02070157  RH  073%=      5-min Rain = 0
KCL1 140526Z 15008KT 21/16 A2995 RMK A01 T02070157  RH  073%=      5-min Rain = 0
KCL1 140527Z 15009KT 21/16 A2995 RMK A01 T02070157  RH  073%=      5-min Rain = 0
KCL1 140528Z 15010KT 21/16 A2995 RMK A01 T02070156  RH  073%=      5-min Rain = 0
KCL1 140529Z 15010KT 21/16 A2995 RMK A01 T02060156  RH  073%=      5-min Rain = 0
KCL1 140530Z 15010KT 21/16 A2995 RMK A01 T02060156  RH  073%=      5-min Rain = 0
KCL1 140531Z 15011KT 21/16 A2995 RMK A01 T02060156  RH  073%=      5-min Rain = 0
KCL1 140532Z 15010KT 21/16 A2995 RMK A01 T02060156  RH  073%=      5-min Rain = 0
KCL1 140533Z 14011KT 21/16 A2995 RMK A01 T02060156  RH  073%=      5-min Rain = 0
KCL1 140534Z 14012KT 21/16 A2995 RMK A01 T02060156  RH  073%=      5-min Rain = 0
KCL1 140535Z 13010KT 21/16 A2995 RMK A01 T02050156  RH  073%=      5-min Rain = 0
KCL1 140536Z 15011KT 21/16 A2995 RMK A01 T02050156  RH  073%=      5-min Rain = 0
KCL1 140537Z 14008KT 21/16 A2995 RMK A01 T02050156  RH  073%=      5-min Rain = 0
KCL1 140538Z 14008KT 21/16 A2995 RMK A01 T02050156  RH  073%=      5-min Rain = 0
KCL1 140539Z 14008KT 21/16 A2995 RMK A01 T02050156  RH  073%=      5-min Rain = 0
KCL1 140540Z 14010KT 21/16 A2995 RMK A01 T02050156  RH  073%=      5-min Rain = 0
KCL1 140541Z 14012KT 20/16 A2995 RMK A01 T02040156  RH  074%=      5-min Rain = 0
KCL1 140542Z 14013KT 21/16 A2995 RMK A01 T02050156  RH  073%=      5-min Rain = 0
KCL1 140543Z 14013KT 21/16 A2995 RMK A01 T02050156  RH  073%=      5-min Rain = 0
KCL1 140544Z 14012KT 21/16 A2995 RMK A01 T02060156  RH  073%=      5-min Rain = 0
KCL1 140545Z 14012KT 21/16 A2995 RMK A01 T02060156  RH  073%=      5-min Rain = 0
KCL1 140546Z 14010KT 21/16 A2995 RMK A01 T02060156  RH  073%=      5-min Rain = 0
KCL1 140547Z 14010KT 21/16 A2995 RMK A01 T02060156  RH  073%=      5-min Rain = 0
KCL1 140548Z 14010KT 21/16 A2995 RMK A01 T02050156  RH  073%=      5-min Rain = 0
KCL1 140549Z 14010KT 21/16 A2995 RMK A01 T02050156  RH  074%=      5-min Rain = 0
KCL1 140550Z 15013KT 21/16 A2995 RMK A01 T02050156  RH  073%=      5-min Rain = 0
KCL1 140551Z 15010KT 21/16 A2995 RMK A01 T02050156  RH  073%=      5-min Rain = 0
KCL1 140552Z 14008KT 21/16 A2995 RMK A01 T02060156  RH  073%=      5-min Rain = 0
KCL1 140553Z 14008KT 21/16 A2995 RMK A01 T02060156  RH  073%=      5-min Rain = 0
KCL1 140554Z 15009KT 21/16 A2995 RMK A01 T02060156  RH  073%=      5-min Rain = 0
KCL1 140555Z 14012KT 21/16 A2995 RMK A01 T02050156  RH  073%=      5-min Rain = 0
KCL1 140556Z 14011KT 21/16 A2995 RMK A01 T02050156  RH  074%=      5-min Rain = 0
KCL1 140557Z 14010KT 21/16 A2994 RMK A01 T02060156  RH  073%=      5-min Rain = 0
KCL1 140558Z 14012KT 21/16 A2994 RMK A01 T02060156  RH  073%=      5-min Rain = 0
KCL1 140559Z 15010KT 21/16 A2994 RMK A01 T02060156  RH  073%=      5-min Rain = 0
KCL1 140600Z 14009KT 21/16 A2994 RMK A01 T02070157  RH  073%=      5-min Rain = 0
KCL1 140601Z 14009KT 21/16 A2994 RMK A01 T02070156  RH  073%=      5-min Rain = 0
KCL1 140602Z 14010KT 21/16 A2994 RMK A01 T02070156  RH  073%=      5-min Rain = 0
KCL1 140603Z 14009KT 21/16 A2994 RMK A01 T02060156  RH  073%=      5-min Rain = 0
KCL1 140604Z 14010KT 21/16 A2994 RMK A01 T02060156  RH  073%=      5-min Rain = 0
KCL1 140605Z 15011KT 21/16 A2994 RMK A01 T02050156  RH  073%=      5-min Rain = 0
KCL1 140606Z 14012KT 21/16 A2994 RMK A01 T02060157  RH  073%=      5-min Rain = 0
KCL1 140607Z 14010KT 21/16 A2994 RMK A01 T02070157  RH  073%=      5-min Rain = 0
KCL1 140608Z 14010KT 21/16 A2994 RMK A01 T02070156  RH  073%=      5-min Rain = 0
KCL1 140609Z 15012KT 21/16 A2994 RMK A01 T02070157  RH  073%=      5-min Rain = 0
KCL1 140610Z 14012KT 21/16 A2994 RMK A01 T02070157  RH  073%=      5-min Rain = 0
KCL1 140611Z 15012KT 21/16 A2994 RMK A01 T02080157  RH  073%=      5-min Rain = 0
KCL1 140612Z 14011KT 21/16 A2994 RMK A01 T02080157  RH  072%=      5-min Rain = 0
KCL1 140613Z 14009KT 21/16 A2994 RMK A01 T02090157  RH  072%=      5-min Rain = 0
KCL1 140614Z 14010KT 21/16 A2994 RMK A01 T02080157  RH  072%=      5-min Rain = 0
KCL1 140615Z 14011KT 21/16 A2994 RMK A01 T02070157  RH  073%=      5-min Rain = 0
KCL1 140616Z 14009KT 21/16 A2994 RMK A01 T02070157  RH  073%=      5-min Rain = 0
KCL1 140617Z 14011KT 21/16 A2994 RMK A01 T02070156  RH  073%=      5-min Rain = 0
KCL1 140618Z 14009KT 21/16 A2994 RMK A01 T02060156  RH  073%=      5-min Rain = 0
KCL1 140619Z 14011KT 21/16 A2994 RMK A01 T02060156  RH  073%=      5-min Rain = 0
KCL1 140620Z 14010KT 21/16 A2994 RMK A01 T02060157  RH  073%=      5-min Rain = 0
KCL1 140621Z 14009KT 21/16 A2994 RMK A01 T02060156  RH  073%=      5-min Rain = 0
KCL1 140622Z 14009KT 21/16 A2994 RMK A01 T02060156  RH  073%=      5-min Rain = 0
KCL1 140623Z 14009KT 21/16 A2994 RMK A01 T02050156  RH  073%=      5-min Rain = 0
KCL1 140624Z 14010KT 21/16 A2994 RMK A01 T02050156  RH  074%=      5-min Rain = 0
KCL1 140625Z 14009KT 20/16 A2994 RMK A01 T02040156  RH  074%=      5-min Rain = 0
KCL1 140626Z 14009KT 20/16 A2994 RMK A01 T02040156  RH  074%=      5-min Rain = 0
KCL1 140627Z 14010KT 20/16 A2994 RMK A01 T02030156  RH  074%=      5-min Rain = 0
KCL1 140628Z 14011KT 20/16 A2994 RMK A01 T02030156  RH  074%=      5-min Rain = 0
KCL1 140629Z 14010KT 20/16 A2994 RMK A01 T02030156  RH  074%=      5-min Rain = 0
KCL1 140630Z 14010KT 20/16 A2994 RMK A01 T02030156  RH  074%=      5-min Rain = 0
KCL1 140631Z 14009KT 20/16 A2994 RMK A01 T02030156  RH  074%=      5-min Rain = 0
KCL1 140632Z 14009KT 20/16 A2994 RMK A01 T02030156  RH  074%=      5-min Rain = 0
KCL1 140633Z 14009KT 20/16 A2994 RMK A01 T02030156  RH  074%=      5-min Rain = 0
KCL1 140634Z 14009KT 20/16 A2994 RMK A01 T02030156  RH  074%=      5-min Rain = 0
KCL1 140635Z 14010KT 20/16 A2994 RMK A01 T02030156  RH  074%=      5-min Rain = 0
KCL1 140636Z 14010KT 20/16 A2994 RMK A01 T02030156  RH  074%=      5-min Rain = 0
KCL1 140637Z 14011KT 20/16 A2994 RMK A01 T02030156  RH  074%=      5-min Rain = 0
KCL1 140638Z 14010KT 20/16 A2994 RMK A01 T02030156  RH  074%=      5-min Rain = 0
KCL1 140639Z 14009KT 20/16 A2994 RMK A01 T02030156  RH  074%=      5-min Rain = 0
KCL1 140640Z 14010KT 20/16 A2994 RMK A01 T02030156  RH  074%=      5-min Rain = 0
KCL1 140641Z 13011KT 20/16 A2994 RMK A01 T02030156  RH  074%=      5-min Rain = 0
KCL1 140642Z 14010KT 20/16 A2994 RMK A01 T02030156  RH  074%=      5-min Rain = 0
KCL1 140643Z 13010KT 20/16 A2994 RMK A01 T02030156  RH  074%=      5-min Rain = 0
KCL1 140644Z 14012KT 20/16 A2994 RMK A01 T02030156  RH  074%=      5-min Rain = 0
KCL1 140645Z 14012KT 20/16 A2994 RMK A01 T02030156  RH  074%=      5-min Rain = 0
KCL1 140646Z 14010KT 20/16 A2994 RMK A01 T02030156  RH  074%=      5-min Rain = 0
KCL1 140647Z 14010KT 20/16 A2995 RMK A01 T02030156  RH  074%=      5-min Rain = 0
KCL1 140648Z 14011KT 20/16 A2995 RMK A01 T02030156  RH  074%=      5-min Rain = 0
KCL1 140649Z 14010KT 20/16 A2995 RMK A01 T02030156  RH  074%=      5-min Rain = 0
KCL1 140650Z 13011KT 20/16 A2994 RMK A01 T02030156  RH  074%=      5-min Rain = 0
KCL1 140651Z 14012KT 20/16 A2995 RMK A01 T02030156  RH  074%=      5-min Rain = 0
KCL1 140652Z 14013KT 20/16 A2995 RMK A01 T02030155  RH  074%=      5-min Rain = 0
KCL1 140653Z 14011KT 20/16 A2995 RMK A01 T02030156  RH  074%=      5-min Rain = 0
KCL1 140654Z 14012KT 20/16 A2995 RMK A01 T02030155  RH  074%=      5-min Rain = 0
KCL1 140655Z 13012KT 20/16 A2995 RMK A01 T02030156  RH  074%=      5-min Rain = 0
KCL1 140656Z 14013KT 20/16 A2995 RMK A01 T02030156  RH  074%=      5-min Rain = 0
KCL1 140657Z 14013KT 20/16 A2995 RMK A01 T02030156  RH  074%=      5-min Rain = 0
KCL1 140658Z 13012KT 20/16 A2995 RMK A01 T02040156  RH  074%=      5-min Rain = 0
KCL1 140659Z 14011KT 20/16 A2995 RMK A01 T02030156  RH  074%=      5-min Rain = 0
KCL1 140700Z 13012KT 20/16 A2995 RMK A01 T02040156  RH  074%=      5-min Rain = 0
KCL1 140701Z 13012KT 20/16 A2995 RMK A01 T02030156  RH  074%=      5-min Rain = 0
KCL1 140702Z 14013KT 20/16 A2995 RMK A01 T02030156  RH  074%=      5-min Rain = 0
KCL1 140703Z 13013KT 20/16 A2995 RMK A01 T02030156  RH  074%=      5-min Rain = 0
KCL1 140704Z 13013KT 20/16 A2995 RMK A01 T02030156  RH  074%=      5-min Rain = 0
KCL1 140705Z 13013KT 20/16 A2995 RMK A01 T02030156  RH  074%=      5-min Rain = 0
KCL1 140706Z 13012KT 20/16 A2995 RMK A01 T02030156  RH  074%=      5-min Rain = 0
KCL1 140707Z 13011KT 20/16 A2995 RMK A01 T02040156  RH  074%=      5-min Rain = 0
KCL1 140708Z 13012KT 20/16 A2995 RMK A01 T02040156  RH  074%=      5-min Rain = 0
KCL1 140709Z 13012KT 20/16 A2995 RMK A01 T02030156  RH  074%=      5-min Rain = 0
KCL1 140710Z 13012KT 20/16 A2995 RMK A01 T02030156  RH  074%=      5-min Rain = 0
KCL1 140711Z 13012KT 20/16 A2995 RMK A01 T02030156  RH  075%=      5-min Rain = 0
KCL1 140712Z 13016KT 20/16 A2995 RMK A01 T02030157  RH  075%=      5-min Rain = 0
KCL1 140713Z 14014KT 20/16 A2995 RMK A01 T02030157  RH  074%=      5-min Rain = 0
KCL1 140714Z 14010KT 20/16 A2995 RMK A01 T02030156  RH  074%=      5-min Rain = 0
KCL1 140715Z 14012KT 20/16 A2995 RMK A01 T02030157  RH  074%=      5-min Rain = 0
KCL1 140716Z 13012KT 20/16 A2995 RMK A01 T02030157  RH  075%=      5-min Rain = 0
KCL1 140717Z 14011KT 20/16 A2995 RMK A01 T02030157  RH  075%=      5-min Rain = 0
KCL1 140718Z 14011KT 20/16 A2995 RMK A01 T02030157  RH  075%=      5-min Rain = 0
KCL1 140719Z 13012KT 20/16 A2995 RMK A01 T02020157  RH  075%=      5-min Rain = 0
KCL1 140720Z 13012KT 20/16 A2995 RMK A01 T02020157  RH  075%=      5-min Rain = 0
KCL1 140721Z 13011KT 20/16 A2995 RMK A01 T02020157  RH  075%=      5-min Rain = 0
KCL1 140722Z 14011KT 20/16 A2995 RMK A01 T02020157  RH  075%=      5-min Rain = 0
KCL1 140723Z 13009KT 20/16 A2995 RMK A01 T02020157  RH  075%=      5-min Rain = 0
KCL1 140724Z 13009KT 20/16 A2995 RMK A01 T02010157  RH  076%=      5-min Rain = 0
KCL1 140725Z 13014KT 20/16 A2995 RMK A01 T02010157  RH  076%=      5-min Rain = 0
KCL1 140726Z 13014KT 20/16 A2995 RMK A01 T02010157  RH  076%=      5-min Rain = 0
KCL1 140727Z 13014KT 20/16 A2995 RMK A01 T02010157  RH  076%=      5-min Rain = 0
KCL1 140728Z 13011KT 20/16 A2995 RMK A01 T02010158  RH  076%=      5-min Rain = 0
KCL1 140729Z 13011KT 20/16 A2995 RMK A01 T02010157  RH  076%=      5-min Rain = 0
KCL1 140730Z 13012KT 20/16 A2995 RMK A01 T02010158  RH  076%=      5-min Rain = 0
KCL1 140731Z 13011KT 20/16 A2995 RMK A01 T02010158  RH  076%=      5-min Rain = 0
KCL1 140732Z 13013KT 20/16 A2995 RMK A01 T02010158  RH  076%=      5-min Rain = 0
KCL1 140733Z 13013KT 20/16 A2995 RMK A01 T02010158  RH  076%=      5-min Rain = 0
KCL1 140734Z 13013KT 20/16 A2995 RMK A01 T02010158  RH  076%=      5-min Rain = 0
KCL1 140735Z 13009KT 20/16 A2995 RMK A01 T02010158  RH  076%=      5-min Rain = 0
KCL1 140736Z 13009KT 20/16 A2995 RMK A01 T02010158  RH  076%=      5-min Rain = 0
KCL1 140737Z 14008KT 20/16 A2995 RMK A01 T02000158  RH  076%=      5-min Rain = 0
KCL1 140738Z 14008KT 20/16 A2995 RMK A01 T02000158  RH  077%=      5-min Rain = 0
KCL1 140739Z 13009KT 20/16 A2995 RMK A01 T01990158  RH  077%=      5-min Rain = 0
KCL1 140740Z 11008KT 20/16 A2995 RMK A01 T01990157  RH  077%=      5-min Rain = 0
KCL1 140741Z 12009KT 20/16 A2995 RMK A01 T01970156  RH  077%=      5-min Rain = 0
KCL1 140742Z 13008KT 20/16 A2995 RMK A01 T01960156  RH  077%=      5-min Rain = 0
KCL1 140743Z 13009KT 20/16 A2995 RMK A01 T01950156  RH  078%=      5-min Rain = 0
KCL1 140744Z 12009KT 19/16 A2995 RMK A01 T01930155  RH  079%=      5-min Rain = 0
KCL1 140745Z 13008KT 19/16 A2995 RMK A01 T01920155  RH  079%=      5-min Rain = 0
KCL1 140746Z 13007KT 19/16 A2995 RMK A01 T01910156  RH  080%=      5-min Rain = 0
KCL1 140747Z 12008KT 19/16 A2995 RMK A01 T01900156  RH  081%=      5-min Rain = 0
KCL1 140748Z 13009KT 19/16 A2994 RMK A01 T01890157  RH  082%=      5-min Rain = 0
KCL1 140749Z 13008KT 19/16 A2994 RMK A01 T01880157  RH  082%=      5-min Rain = 0
KCL1 140750Z 14007KT 19/16 A2994 RMK A01 T01880157  RH  082%=      5-min Rain = 0
KCL1 140751Z 14008KT 19/16 A2995 RMK A01 T01870157  RH  082%=      5-min Rain = 0
KCL1 140752Z 13007KT 19/16 A2995 RMK A01 T01870157  RH  082%=      5-min Rain = 0
KCL1 140753Z 12008KT 19/16 A2995 RMK A01 T01870157  RH  083%=      5-min Rain = 0
KCL1 140754Z 13008KT 19/16 A2995 RMK A01 T01870157  RH  083%=      5-min Rain = 0
KCL1 140755Z 14008KT 19/16 A2994 RMK A01 T01870157  RH  083%=      5-min Rain = 0
KCL1 140756Z 14008KT 19/16 A2994 RMK A01 T01870157  RH  082%=      5-min Rain = 0
KCL1 140757Z 14008KT 19/16 A2994 RMK A01 T01880157  RH  082%=      5-min Rain = 0
KCL1 140758Z 15009KT 19/16 A2994 RMK A01 T01900158  RH  082%=      5-min Rain = 0
KCL1 140759Z 15008KT 19/16 A2995 RMK A01 T01910158  RH  081%=      5-min Rain = 0
KCL1 140800Z 14009KT 19/16 A2995 RMK A01 T01920159  RH  081%=      5-min Rain = 0
KCL1 140801Z 14010KT 19/16 A2994 RMK A01 T01930159  RH  081%=      5-min Rain = 0
KCL1 140802Z 16010KT 19/16 A2994 RMK A01 T01930160  RH  081%=      5-min Rain = 0
KCL1 140803Z 15009KT 19/16 A2994 RMK A01 T01940160  RH  080%=      5-min Rain = 0
KCL1 140804Z 15010G15KT 20/16 A2994 RMK A01 T01950160  RH  080%=      5-min Rain = 0
KCL1 140805Z 14010KT 19/16 A2994 RMK A01 T01940161  RH  081%=      5-min Rain = 0
KCL1 140806Z 14009KT 20/16 A2994 RMK A01 T01950161  RH  081%=      5-min Rain = 0
KCL1 140807Z 14009KT 20/16 A2994 RMK A01 T01950161  RH  081%=      5-min Rain = 0
KCL1 140808Z 13007KT 19/16 A2994 RMK A01 T01940162  RH  081%=      5-min Rain = 0
KCL1 140809Z 14008KT 19/16 A2994 RMK A01 T01940161  RH  082%=      5-min Rain = 0
KCL1 140810Z 14011KT 19/16 A2994 RMK A01 T01930162  RH  082%=      5-min Rain = 0
KCL1 140811Z 14010KT 19/16 A2994 RMK A01 T01920162  RH  083%=      5-min Rain = 0
KCL1 140812Z 14013KT 19/16 A2994 RMK A01 T01920163  RH  083%=      5-min Rain = 0
KCL1 140813Z 14009KT 19/16 A2994 RMK A01 T01920163  RH  084%=      5-min Rain = 0
KCL1 140814Z 14009KT 19/16 A2994 RMK A01 T01920163  RH  084%=      5-min Rain = 0
KCL1 140815Z 14009KT 19/16 A2994 RMK A01 T01910163  RH  084%=      5-min Rain = 0
KCL1 140816Z 14010KT 19/16 A2994 RMK A01 T01900163  RH  084%=      5-min Rain = 0
KCL1 140817Z 14010KT 19/16 A2994 RMK A01 T01900164  RH  085%=      5-min Rain = 0
KCL1 140818Z 14012KT 19/16 A2994 RMK A01 T01890164  RH  085%=      5-min Rain = 0
KCL1 140819Z 14010KT 19/16 A2994 RMK A01 T01890164  RH  085%=      5-min Rain = 0
KCL1 140820Z 14012KT 19/16 A2994 RMK A01 T01890164  RH  086%=      5-min Rain = 0
KCL1 140821Z 14012KT 19/16 A2994 RMK A01 T01890164  RH  086%=      5-min Rain = 0
KCL1 140822Z 14012KT 19/17 A2994 RMK A01 T01890165  RH  086%=      5-min Rain = 0
KCL1 140823Z 13010KT 19/17 A2994 RMK A01 T01890165  RH  086%=      5-min Rain = 0
KCL1 140824Z 14009KT 19/17 A2994 RMK A01 T01880165  RH  086%=      5-min Rain = 0
KCL1 140825Z 15009KT 19/17 A2994 RMK A01 T01880165  RH  086%=      5-min Rain = 0
KCL1 140826Z 15007KT 19/16 A2994 RMK A01 T01880164  RH  086%=      5-min Rain = 0
KCL1 140827Z 15012KT 19/17 A2994 RMK A01 T01880165  RH  086%=      5-min Rain = 0
KCL1 140828Z 14011KT 19/17 A2994 RMK A01 T01880165  RH  087%=      5-min Rain = 0
KCL1 140829Z 15009KT 19/17 A2994 RMK A01 T01880165  RH  087%=      5-min Rain = 0
KCL1 140830Z 14007KT 19/17 A2994 RMK A01 T01870165  RH  087%=      5-min Rain = 0
KCL1 140831Z 15009KT 19/16 A2994 RMK A01 T01870164  RH  087%=      5-min Rain = 0
KCL1 140832Z 14011KT 19/17 A2994 RMK A01 T01860165  RH  087%=      5-min Rain = 0
KCL1 140833Z 16007KT 19/17 A2995 RMK A01 T01860165  RH  087%=      5-min Rain = 0
KCL1 140834Z 15007KT 19/16 A2995 RMK A01 T01860164  RH  087%=      5-min Rain = 0
KCL1 140835Z 16010KT 19/17 A2994 RMK A01 T01860165  RH  088%=      5-min Rain = 0
KCL1 140836Z 15008KT 19/17 A2995 RMK A01 T01860165  RH  088%=      5-min Rain = 0
KCL1 140837Z 14007KT 19/17 A2995 RMK A01 T01860165  RH  088%=      5-min Rain = 0
KCL1 140838Z 15008KT 19/17 A2995 RMK A01 T01850165  RH  088%=      5-min Rain = 0
KCL1 140839Z 14007KT 19/17 A2995 RMK A01 T01850165  RH  088%=      5-min Rain = 0
KCL1 140840Z 16007KT 19/17 A2995 RMK A01 T01850165  RH  088%=      5-min Rain = 0
KCL1 140841Z 15009KT 19/16 A2995 RMK A01 T01850164  RH  088%=      5-min Rain = 0
KCL1 140842Z 15008KT 19/17 A2995 RMK A01 T01850165  RH  088%=      5-min Rain = 0
KCL1 140843Z 14007KT 19/17 A2995 RMK A01 T01850165  RH  088%=      5-min Rain = 0
KCL1 140844Z 14009KT 19/17 A2995 RMK A01 T01850165  RH  088%=      5-min Rain = 0
KCL1 140845Z 14007KT 19/17 A2995 RMK A01 T01850165  RH  088%=      5-min Rain = 0
KCL1 140846Z 14009KT 18/17 A2995 RMK A01 T01840165  RH  088%=      5-min Rain = 0
KCL1 140847Z 14007KT 18/17 A2995 RMK A01 T01840165  RH  088%=      5-min Rain = 0
KCL1 140848Z 14007KT 18/17 A2995 RMK A01 T01840165  RH  089%=      5-min Rain = 0
KCL1 140849Z 14008KT 18/16 A2995 RMK A01 T01830164  RH  089%=      5-min Rain = 0
KCL1 140850Z 14009KT 18/17 A2995 RMK A01 T01830165  RH  089%=      5-min Rain = 0
KCL1 140851Z 15007KT 18/17 A2995 RMK A01 T01830165  RH  089%=      5-min Rain = 0
KCL1 140852Z 15006KT 18/17 A2995 RMK A01 T01830165  RH  089%=      5-min Rain = 0
KCL1 140853Z 15007KT 18/17 A2995 RMK A01 T01830165  RH  089%=      5-min Rain = 0
KCL1 140854Z 15005KT 18/17 A2995 RMK A01 T01830165  RH  089%=      5-min Rain = 0
KCL1 140855Z 14005KT 18/17 A2995 RMK A01 T01820165  RH  089%=      5-min Rain = 0
KCL1 140856Z 15008KT 18/16 A2995 RMK A01 T01820164  RH  089%=      5-min Rain = 0
KCL1 140857Z 15008KT 18/17 A2995 RMK A01 T01820165  RH  090%=      5-min Rain = 0
KCL1 140858Z 15011KT 18/17 A2995 RMK A01 T01810165  RH  090%=      5-min Rain = 0
KCL1 140859Z 15010KT 18/17 A2995 RMK A01 T01820165  RH  090%=      5-min Rain = 0
KCL1 140900Z 14008KT 18/17 A2995 RMK A01 T01820165  RH  090%=      5-min Rain = 0
KCL1 140901Z 15005KT 18/17 A2995 RMK A01 T01820165  RH  090%=      5-min Rain = 0
KCL1 140902Z 15007KT 18/17 A2995 RMK A01 T01820165  RH  090%=      5-min Rain = 0
KCL1 140903Z 15007KT 18/16 A2995 RMK A01 T01810164  RH  090%=      5-min Rain = 0
KCL1 140904Z 15008KT 18/17 A2995 RMK A01 T01810165  RH  090%=      5-min Rain = 0
KCL1 140905Z 15007KT 18/17 A2995 RMK A01 T01810165  RH  091%=      5-min Rain = 0
KCL1 140906Z 15009KT 18/17 A2995 RMK A01 T01810165  RH  090%=      5-min Rain = 0
KCL1 140907Z 15009KT 18/17 A2995 RMK A01 T01800165  RH  091%=      5-min Rain = 0
KCL1 140908Z 15006KT 18/17 A2995 RMK A01 T01800165  RH  091%=      5-min Rain = 0
KCL1 140909Z 15007KT 18/17 A2995 RMK A01 T01800165  RH  091%=      5-min Rain = 0
KCL1 140910Z 15008KT 18/17 A2995 RMK A01 T01800165  RH  091%=      5-min Rain = 0
KCL1 140911Z 15007KT 18/17 A2995 RMK A01 T01800165  RH  091%=      5-min Rain = 0
KCL1 140912Z 15006KT 18/17 A2995 RMK A01 T01790165  RH  091%=      5-min Rain = 0
KCL1 140913Z 16006KT 18/16 A2995 RMK A01 T01790164  RH  091%=      5-min Rain = 0
KCL1 140914Z 15007KT 18/17 A2995 RMK A01 T01790165  RH  091%=      5-min Rain = 0
KCL1 140915Z 15007KT 18/17 A2995 RMK A01 T01790165  RH  091%=      5-min Rain = 0
KCL1 140916Z 15007KT 18/16 A2995 RMK A01 T01780164  RH  092%=      5-min Rain = 0
KCL1 140917Z 14007KT 18/17 A2995 RMK A01 T01780165  RH  092%=      5-min Rain = 0
KCL1 140918Z 15007KT 18/16 A2995 RMK A01 T01780164  RH  091%=      5-min Rain = 0
KCL1 140919Z 15008KT 18/16 A2995 RMK A01 T01780164  RH  092%=      5-min Rain = 0
KCL1 140920Z 15008KT 18/16 A2995 RMK A01 T01780164  RH  092%=      5-min Rain = 0
KCL1 140921Z 15007KT 18/16 A2995 RMK A01 T01780164  RH  092%=      5-min Rain = 0
KCL1 140922Z 15009KT 18/16 A2995 RMK A01 T01770164  RH  092%=      5-min Rain = 0
KCL1 140923Z 15010KT 18/16 A2995 RMK A01 T01770164  RH  092%=      5-min Rain = 0
KCL1 140924Z 16008KT 18/17 A2995 RMK A01 T01780165  RH  092%=      5-min Rain = 0
KCL1 140925Z 17006KT 18/17 A2995 RMK A01 T01780165  RH  092%=      5-min Rain = 0
KCL1 140926Z 16008KT 18/17 A2995 RMK A01 T01780165  RH  092%=      5-min Rain = 0
KCL1 140927Z 16009KT 18/17 A2995 RMK A01 T01780165  RH  092%=      5-min Rain = 0
KCL1 140928Z 16007KT 18/17 A2995 RMK A01 T01780165  RH  092%=      5-min Rain = 0
KCL1 140929Z 16007KT 18/17 A2995 RMK A01 T01780165  RH  092%=      5-min Rain = 0
KCL1 140930Z 16009KT 18/17 A2995 RMK A01 T01780165  RH  092%=      5-min Rain = 0
KCL1 140931Z 16008KT 18/17 A2995 RMK A01 T01780165  RH  092%=      5-min Rain = 0
KCL1 140932Z 15007KT 18/17 A2995 RMK A01 T01780165  RH  092%=      5-min Rain = 0
KCL1 140933Z 15007KT 18/16 A2995 RMK A01 T01770164  RH  092%=      5-min Rain = 0
KCL1 140934Z 15008KT 18/16 A2995 RMK A01 T01770164  RH  092%=      5-min Rain = 0
KCL1 140935Z 15008KT 18/17 A2995 RMK A01 T01770165  RH  092%=      5-min Rain = 0
KCL1 140936Z 15008KT 18/17 A2995 RMK A01 T01770165  RH  093%=      5-min Rain = 0
KCL1 140937Z 15009KT 18/17 A2995 RMK A01 T01770165  RH  093%=      5-min Rain = 0
KCL1 140938Z 15008KT 18/17 A2995 RMK A01 T01770165  RH  093%=      5-min Rain = 0
KCL1 140939Z 15008KT 18/17 A2995 RMK A01 T01770165  RH  093%=      5-min Rain = 0
KCL1 140940Z 15008KT 18/17 A2995 RMK A01 T01760165  RH  093%=      5-min Rain = 0
KCL1 140941Z 15009KT 18/17 A2995 RMK A01 T01770165  RH  093%=      5-min Rain = 0
KCL1 140942Z 16007KT 18/17 A2995 RMK A01 T01770165  RH  093%=      5-min Rain = 0
KCL1 140943Z 16007KT 18/17 A2995 RMK A01 T01770165  RH  093%=      5-min Rain = 0
KCL1 140944Z 16007KT 18/17 A2995 RMK A01 T01770165  RH  093%=      5-min Rain = 0
KCL1 140945Z 16007KT 18/17 A2995 RMK A01 T01770165  RH  093%=      5-min Rain = 0
KCL1 140946Z 16007KT 18/17 A2995 RMK A01 T01760165  RH  093%=      5-min Rain = 0
KCL1 140947Z 16006KT 18/17 A2995 RMK A01 T01770165  RH  093%=      5-min Rain = 0
KCL1 140948Z 16007KT 18/17 A2995 RMK A01 T01760165  RH  093%=      5-min Rain = 0
KCL1 140949Z 17007KT 18/17 A2995 RMK A01 T01760165  RH  093%=      5-min Rain = 0
KCL1 140950Z 16006KT 18/17 A2995 RMK A01 T01760165  RH  093%=      5-min Rain = 0
KCL1 140951Z 16006KT 18/16 A2995 RMK A01 T01760164  RH  093%=      5-min Rain = 0
KCL1 140952Z 17007KT 18/16 A2995 RMK A01 T01750164  RH  093%=      5-min Rain = 0
KCL1 140953Z 17006KT 18/16 A2995 RMK A01 T01750164  RH  093%=      5-min Rain = 0
KCL1 140954Z 16007KT 18/16 A2995 RMK A01 T01750164  RH  093%=      5-min Rain = 0
KCL1 140955Z 16007KT 18/16 A2995 RMK A01 T01750164  RH  094%=      5-min Rain = 0
KCL1 140956Z 16007KT 18/16 A2995 RMK A01 T01750164  RH  094%=      5-min Rain = 0
KCL1 140957Z 16006KT 18/16 A2995 RMK A01 T01750164  RH  094%=      5-min Rain = 0
KCL1 140958Z 16006KT 18/16 A2995 RMK A01 T01750164  RH  094%=      5-min Rain = 0
KCL1 140959Z 16007KT 17/16 A2995 RMK A01 T01740164  RH  094%=      5-min Rain = 0
KCL1 141000Z 16007KT 17/16 A2995 RMK A01 T01740164  RH  094%=      5-min Rain = 0
KCL1 141001Z 16007KT 17/16 A2995 RMK A01 T01740164  RH  094%=      5-min Rain = 0
KCL1 141002Z 16006KT 17/16 A2995 RMK A01 T01730164  RH  094%=      5-min Rain = 0
KCL1 141003Z 15006KT 17/16 A2995 RMK A01 T01730164  RH  094%=      5-min Rain = 0
KCL1 141004Z 16006KT 17/16 A2995 RMK A01 T01730164  RH  094%=      5-min Rain = 0
KCL1 141005Z 16006KT 17/16 A2995 RMK A01 T01730163  RH  094%=      5-min Rain = 0
KCL1 141006Z 15006KT 17/16 A2995 RMK A01 T01720163  RH  094%=      5-min Rain = 0
KCL1 141007Z 15006KT 17/16 A2995 RMK A01 T01720163  RH  094%=      5-min Rain = 0
KCL1 141008Z 15007KT 17/16 A2995 RMK A01 T01710162  RH  095%=      5-min Rain = 0
KCL1 141009Z 16006KT 17/16 A2995 RMK A01 T01700162  RH  095%=      5-min Rain = 0
KCL1 141010Z 15005KT 17/16 A2995 RMK A01 T01700162  RH  095%=      5-min Rain = 0
KCL1 141011Z 16006KT 17/16 A2995 RMK A01 T01690162  RH  095%=      5-min Rain = 0
KCL1 141012Z 16006KT 17/16 A2995 RMK A01 T01690161  RH  095%=      5-min Rain = 0
KCL1 141013Z 15005KT 17/16 A2995 RMK A01 T01680161  RH  096%=      5-min Rain = 0
KCL1 141014Z 15005KT 17/16 A2995 RMK A01 T01680161  RH  096%=      5-min Rain = 0
KCL1 141015Z 15005KT 17/16 A2995 RMK A01 T01680162  RH  096%=      5-min Rain = 0
KCL1 141016Z 15005KT 17/16 A2995 RMK A01 T01680162  RH  096%=      5-min Rain = 0
KCL1 141017Z 15005KT 17/16 A2995 RMK A01 T01680162  RH  097%=      5-min Rain = 0
KCL1 141018Z 13004KT 17/16 A2995 RMK A01 T01680162  RH  097%=      5-min Rain = 0
KCL1 141019Z 14004KT 17/16 A2995 RMK A01 T01670161  RH  097%=      5-min Rain = 0
KCL1 141020Z 15004KT 17/16 A2995 RMK A01 T01670161  RH  097%=      5-min Rain = 0
KCL1 141021Z 16004KT 17/16 A2995 RMK A01 T01670162  RH  097%=      5-min Rain = 0
KCL1 141022Z 16004KT 17/16 A2995 RMK A01 T01660161  RH  097%=      5-min Rain = 0
KCL1 141023Z 16005KT 17/16 A2995 RMK A01 T01660162  RH  097%=      5-min Rain = 0
KCL1 141024Z 15005KT 17/16 A2995 RMK A01 T01660162  RH  097%=      5-min Rain = 0
KCL1 141025Z 17005KT 17/16 A2995 RMK A01 T01660162  RH  097%=      5-min Rain = 0
KCL1 141026Z 17005KT 17/16 A2995 RMK A01 T01660162  RH  097%=      5-min Rain = 0
KCL1 141027Z 17005KT 17/16 A2995 RMK A01 T01660162  RH  097%=      5-min Rain = 0
KCL1 141028Z 17004KT 17/16 A2995 RMK A01 T01660162  RH  097%=      5-min Rain = 0
KCL1 141029Z 17005KT 17/16 A2995 RMK A01 T01670162  RH  097%=      5-min Rain = 0
KCL1 141030Z 17004KT 17/16 A2995 RMK A01 T01670162  RH  097%=      5-min Rain = 0
KCL1 141031Z 16004KT 17/16 A2995 RMK A01 T01670162  RH  097%=      5-min Rain = 0
KCL1 141032Z 16005KT 17/16 A2995 RMK A01 T01670162  RH  097%=      5-min Rain = 0
KCL1 141033Z 15005KT 17/16 A2995 RMK A01 T01670161  RH  096%=      5-min Rain = 0
KCL1 141034Z 16005KT 17/16 A2995 RMK A01 T01670161  RH  096%=      5-min Rain = 0
KCL1 141035Z 16005KT 17/16 A2995 RMK A01 T01670160  RH  096%=      5-min Rain = 0
KCL1 141036Z 16005KT 17/16 A2995 RMK A01 T01660161  RH  096%=      5-min Rain = 0
KCL1 141037Z 16006KT 17/16 A2995 RMK A01 T01660161  RH  097%=      5-min Rain = 0
KCL1 141038Z 17006KT 17/16 A2995 RMK A01 T01660161  RH  097%=      5-min Rain = 0
KCL1 141039Z 18007KT 17/16 A2995 RMK A01 T01660161  RH  097%=      5-min Rain = 0
KCL1 141040Z 18007KT 17/16 A2995 RMK A01 T01660161  RH  096%=      5-min Rain = 0
KCL1 141041Z 18007KT 17/16 A2995 RMK A01 T01680161  RH  096%=      5-min Rain = 0
KCL1 141042Z 19006KT 17/16 A2995 RMK A01 T01700160  RH  094%=      5-min Rain = 0
KCL1 141043Z 19007KT 17/16 A2995 RMK A01 T01710159  RH  092%=      5-min Rain = 0
KCL1 141044Z 19007KT 17/16 A2995 RMK A01 T01720158  RH  091%=      5-min Rain = 0
KCL1 141045Z 19007KT 17/16 A2995 RMK A01 T01740159  RH  091%=      5-min Rain = 0
KCL1 141046Z 19006KT 18/16 A2995 RMK A01 T01760159  RH  090%=      5-min Rain = 0
KCL1 141047Z 19006KT 18/16 A2995 RMK A01 T01780159  RH  089%=      5-min Rain = 0
KCL1 141048Z 19007KT 18/16 A2995 RMK A01 T01790159  RH  088%=      5-min Rain = 0
KCL1 141049Z 20005KT 18/16 A2995 RMK A01 T01800158  RH  087%=      5-min Rain = 0
KCL1 141050Z 20006KT 18/16 A2995 RMK A01 T01810158  RH  086%=      5-min Rain = 0
KCL1 141051Z 20008KT 18/16 A2995 RMK A01 T01810157  RH  086%=      5-min Rain = 0
KCL1 141052Z 20007KT 18/16 A2995 RMK A01 T01820157  RH  085%=      5-min Rain = 0
KCL1 141053Z 20007KT 18/16 A2995 RMK A01 T01830157  RH  084%=      5-min Rain = 0
KCL1 141054Z 19006KT 18/16 A2995 RMK A01 T01840156  RH  084%=      5-min Rain = 0
KCL1 141055Z 19007KT 19/16 A2994 RMK A01 T01850157  RH  084%=      5-min Rain = 0
KCL1 141056Z 19007KT 19/16 A2994 RMK A01 T01850157  RH  084%=      5-min Rain = 0
KCL1 141057Z 19007KT 19/16 A2994 RMK A01 T01850155  RH  083%=      5-min Rain = 0
KCL1 141058Z 19007KT 19/15 A2994 RMK A01 T01850154  RH  082%=      5-min Rain = 0
KCL1 141059Z 19007KT 19/15 A2994 RMK A01 T01860154  RH  082%=      5-min Rain = 0
KCL1 141100Z 18008KT 19/15 A2994 RMK A01 T01860154  RH  081%=      5-min Rain = 0
KCL1 141101Z 18008KT 19/15 A2994 RMK A01 T01870154  RH  081%=      5-min Rain = 0
KCL1 141102Z 18007KT 19/15 A2994 RMK A01 T01860154  RH  081%=      5-min Rain = 0
KCL1 141103Z 19008KT 19/15 A2994 RMK A01 T01850154  RH  082%=      5-min Rain = 0
KCL1 141104Z 18007KT 19/15 A2994 RMK A01 T01850153  RH  082%=      5-min Rain = 0
KCL1 141105Z 18008KT 19/15 A2994 RMK A01 T01850153  RH  081%=      5-min Rain = 0
KCL1 141106Z 18008KT 19/15 A2994 RMK A01 T01850153  RH  081%=      5-min Rain = 0
KCL1 141107Z 19007KT 19/15 A2994 RMK A01 T01850152  RH  081%=      5-min Rain = 0
KCL1 141108Z 20007KT 19/15 A2994 RMK A01 T01860152  RH  080%=      5-min Rain = 0
KCL1 141109Z 21006KT 19/15 A2994 RMK A01 T01870151  RH  080%=      5-min Rain = 0
KCL1 141110Z 20006KT 19/15 A2994 RMK A01 T01870152  RH  080%=      5-min Rain = 0
KCL1 141111Z 20007KT 19/15 A2994 RMK A01 T01860152  RH  080%=      5-min Rain = 0
KCL1 141112Z 20006KT 19/15 A2994 RMK A01 T01860150  RH  079%=      5-min Rain = 0
KCL1 141113Z 20006KT 19/15 A2994 RMK A01 T01870150  RH  079%=      5-min Rain = 0
KCL1 141114Z 20005KT 19/15 A2994 RMK A01 T01880150  RH  078%=      5-min Rain = 0
KCL1 141115Z 20006KT 19/15 A2994 RMK A01 T01890150  RH  078%=      5-min Rain = 0
KCL1 141116Z 20005KT 19/15 A2995 RMK A01 T01890150  RH  078%=      5-min Rain = 0
KCL1 141117Z 20007KT 19/15 A2995 RMK A01 T01890150  RH  078%=      5-min Rain = 0
KCL1 141118Z 20007KT 19/15 A2995 RMK A01 T01890149  RH  078%=      5-min Rain = 0
KCL1 141119Z 20008KT 19/15 A2995 RMK A01 T01890149  RH  077%=      5-min Rain = 0
KCL1 141120Z 20009KT 19/15 A2995 RMK A01 T01890149  RH  077%=      5-min Rain = 0
KCL1 141121Z 20007KT 19/15 A2995 RMK A01 T01910149  RH  076%=      5-min Rain = 0
KCL1 141122Z 22007KT 19/15 A2995 RMK A01 T01920149  RH  076%=      5-min Rain = 0
KCL1 141123Z 22006KT 19/15 A2995 RMK A01 T01920148  RH  076%=      5-min Rain = 0
KCL1 141124Z 21005KT 19/15 A2995 RMK A01 T01920147  RH  075%=      5-min Rain = 0
KCL1 141125Z 21005KT 19/15 A2994 RMK A01 T01930148  RH  075%=      5-min Rain = 0
KCL1 141126Z 21006KT 19/15 A2994 RMK A01 T01920147  RH  075%=      5-min Rain = 0
KCL1 141127Z 21005KT 19/15 A2994 RMK A01 T01930147  RH  075%=      5-min Rain = 0
KCL1 141128Z 21006KT 19/15 A2994 RMK A01 T01930148  RH  075%=      5-min Rain = 0
KCL1 141129Z 21006KT 19/15 A2994 RMK A01 T01920148  RH  075%=      5-min Rain = 0
KCL1 141130Z 22006KT 19/15 A2995 RMK A01 T01930147  RH  075%=      5-min Rain = 0
KCL1 141131Z 21006KT 19/15 A2995 RMK A01 T01930147  RH  075%=      5-min Rain = 0
KCL1 141132Z 22006KT 19/15 A2995 RMK A01 T01930147  RH  075%=      5-min Rain = 0
KCL1 141133Z 21006KT 19/15 A2995 RMK A01 T01930147  RH  075%=      5-min Rain = 0
KCL1 141134Z 21006KT 19/15 A2995 RMK A01 T01930147  RH  075%=      5-min Rain = 0
KCL1 141135Z 20007KT 19/15 A2995 RMK A01 T01930147  RH  074%=      5-min Rain = 0
KCL1 141136Z 20008KT 19/15 A2995 RMK A01 T01930147  RH  075%=      5-min Rain = 0
KCL1 141137Z 21007KT 19/15 A2995 RMK A01 T01930146  RH  074%=      5-min Rain = 0
KCL1 141138Z 19007KT 19/15 A2995 RMK A01 T01940146  RH  074%=      5-min Rain = 0
KCL1 141139Z 20007KT 19/15 A2995 RMK A01 T01940146  RH  074%=      5-min Rain = 0
KCL1 141140Z 20006KT 19/15 A2995 RMK A01 T01940147  RH  074%=      5-min Rain = 0
KCL1 141141Z 19008KT 19/15 A2995 RMK A01 T01930146  RH  074%=      5-min Rain = 0
KCL1 141142Z 20007KT 19/15 A2995 RMK A01 T01930147  RH  075%=      5-min Rain = 0
KCL1 141143Z 18005KT 19/15 A2995 RMK A01 T01930146  RH  074%=      5-min Rain = 0
KCL1 141144Z 18005KT 19/15 A2995 RMK A01 T01940147  RH  074%=      5-min Rain = 0
KCL1 141145Z 18005KT 19/15 A2995 RMK A01 T01930147  RH  074%=      5-min Rain = 0
KCL1 141146Z 17006KT 19/15 A2995 RMK A01 T01920146  RH  074%=      5-min Rain = 0
KCL1 141147Z 18006KT 19/15 A2995 RMK A01 T01910145  RH  075%=      5-min Rain = 0
KCL1 141148Z 19005KT 19/15 A2995 RMK A01 T01890145  RH  076%=      5-min Rain = 0
KCL1 141149Z 18006KT 19/14 A2995 RMK A01 T01870144  RH  076%=      5-min Rain = 0
KCL1 141150Z 18006KT 19/14 A2995 RMK A01 T01860144  RH  077%=      5-min Rain = 0
KCL1 141151Z 17007KT 19/14 A2995 RMK A01 T01850144  RH  077%=      5-min Rain = 0
KCL1 141152Z 18007KT 19/14 A2995 RMK A01 T01860144  RH  077%=      5-min Rain = 0
KCL1 141153Z 18006KT 19/14 A2995 RMK A01 T01870144  RH  076%=      5-min Rain = 0
KCL1 141154Z 18007KT 19/14 A2995 RMK A01 T01880144  RH  076%=      5-min Rain = 0
KCL1 141155Z 18006KT 19/14 A2995 RMK A01 T01880144  RH  076%=      5-min Rain = 0
KCL1 141156Z 17006KT 19/14 A2995 RMK A01 T01880144  RH  076%=      5-min Rain = 0
KCL1 141157Z 17006KT 19/15 A2995 RMK A01 T01890145  RH  075%=      5-min Rain = 0
KCL1 141158Z 17006KT 19/14 A2995 RMK A01 T01900144  RH  075%=      5-min Rain = 0
KCL1 141159Z 17005KT 19/14 A2995 RMK A01 T01900144  RH  075%=      5-min Rain = 0
KCL1 141200Z 17005KT 19/14 A2995 RMK A01 T01900144  RH  075%=      5-min Rain = 0
KCL1 141201Z 17006KT 19/14 A2996 RMK A01 T01890144  RH  075%=      5-min Rain = 0
KCL1 141202Z 18006KT 19/14 A2996 RMK A01 T01890144  RH  075%=      5-min Rain = 0
KCL1 141203Z 18007KT 19/14 A2996 RMK A01 T01890144  RH  075%=      5-min Rain = 0
KCL1 141204Z 19007KT 19/14 A2996 RMK A01 T01890144  RH  075%=      5-min Rain = 0
KCL1 141205Z 19007KT 19/14 A2996 RMK A01 T01900144  RH  075%=      5-min Rain = 0
KCL1 141206Z 19009KT 19/14 A2996 RMK A01 T01900144  RH  075%=      5-min Rain = 0
KCL1 141207Z 18007KT 19/15 A2996 RMK A01 T01920145  RH  074%=      5-min Rain = 0
KCL1 141208Z 19008KT 19/15 A2996 RMK A01 T01940145  RH  073%=      5-min Rain = 0
KCL1 141209Z 19007KT 19/15 A2996 RMK A01 T01940145  RH  073%=      5-min Rain = 0
KCL1 141210Z 19008KT 20/15 A2996 RMK A01 T01950145  RH  073%=      5-min Rain = 0
KCL1 141211Z 19009KT 20/15 A2996 RMK A01 T01950145  RH  073%=      5-min Rain = 0
KCL1 141212Z 20010KT 20/14 A2996 RMK A01 T01960144  RH  072%=      5-min Rain = 0
KCL1 141213Z 20008KT 20/14 A2996 RMK A01 T01970144  RH  071%=      5-min Rain = 0
KCL1 141214Z 18007KT 20/14 A2996 RMK A01 T01980144  RH  071%=      5-min Rain = 0
KCL1 141215Z 18010KT 20/15 A2996 RMK A01 T01980145  RH  071%=      5-min Rain = 0
KCL1 141216Z 18010KT 20/15 A2996 RMK A01 T01980145  RH  071%=      5-min Rain = 0
KCL1 141217Z 18009KT 20/15 A2996 RMK A01 T01980146  RH  072%=      5-min Rain = 0
KCL1 141218Z 18009KT 20/15 A2996 RMK A01 T01980146  RH  072%=      5-min Rain = 0
KCL1 141219Z 18008KT 20/15 A2996 RMK A01 T01980146  RH  072%=      5-min Rain = 0
KCL1 141220Z 19008KT 20/15 A2996 RMK A01 T01980146  RH  072%=      5-min Rain = 0
KCL1 141221Z 18008KT 20/15 A2996 RMK A01 T01970145  RH  072%=      5-min Rain = 0
KCL1 141222Z 18008KT 20/15 A2996 RMK A01 T01980145  RH  072%=      5-min Rain = 0
KCL1 141223Z 18008KT 20/15 A2996 RMK A01 T01980145  RH  071%=      5-min Rain = 0
KCL1 141224Z 19010KT 20/15 A2996 RMK A01 T01990145  RH  071%=      5-min Rain = 0
KCL1 141225Z 18008KT 20/15 A2996 RMK A01 T01990145  RH  071%=      5-min Rain = 0
KCL1 141226Z 19007KT 20/15 A2996 RMK A01 T01990145  RH  071%=      5-min Rain = 0
KCL1 141227Z 19009KT 20/15 A2996 RMK A01 T01990145  RH  071%=      5-min Rain = 0
KCL1 141228Z 20007KT 20/15 A2996 RMK A01 T02000145  RH  071%=      5-min Rain = 0
KCL1 141229Z 20007KT 20/14 A2996 RMK A01 T01990144  RH  070%=      5-min Rain = 0
KCL1 141230Z 20006KT 20/14 A2996 RMK A01 T01990144  RH  070%=      5-min Rain = 0
KCL1 141231Z 20007KT 20/14 A2996 RMK A01 T01990143  RH  070%=      5-min Rain = 0
KCL1 141232Z 20007KT 20/14 A2996 RMK A01 T01990143  RH  070%=      5-min Rain = 0
KCL1 141233Z 19005KT 20/14 A2995 RMK A01 T01990143  RH  070%=      5-min Rain = 0
KCL1 141234Z 20005KT 20/14 A2995 RMK A01 T01990143  RH  070%=      5-min Rain = 0
KCL1 141235Z 20006KT 20/14 A2995 RMK A01 T01990143  RH  070%=      5-min Rain = 0
KCL1 141236Z 19006KT 20/14 A2995 RMK A01 T01990143  RH  070%=      5-min Rain = 0
KCL1 141237Z 21006KT 20/14 A2995 RMK A01 T02000143  RH  070%=      5-min Rain = 0
KCL1 141238Z 21005KT 20/14 A2995 RMK A01 T02000143  RH  070%=      5-min Rain = 0
KCL1 141239Z 20005KT 20/14 A2996 RMK A01 T02000143  RH  070%=      5-min Rain = 0
KCL1 141240Z 20006KT 20/14 A2995 RMK A01 T02000143  RH  070%=      5-min Rain = 0
KCL1 141241Z 19006KT 20/14 A2995 RMK A01 T02010143  RH  069%=      5-min Rain = 0
KCL1 141242Z 18006KT 20/14 A2995 RMK A01 T02010144  RH  069%=      5-min Rain = 0
KCL1 141243Z 18006KT 20/14 A2995 RMK A01 T02020144  RH  069%=      5-min Rain = 0
KCL1 141244Z 17006KT 20/14 A2995 RMK A01 T02020144  RH  069%=      5-min Rain = 0
KCL1 141245Z 19007KT 20/14 A2995 RMK A01 T02030144  RH  069%=      5-min Rain = 0
KCL1 141246Z 19005KT 20/14 A2995 RMK A01 T02030144  RH  069%=      5-min Rain = 0
KCL1 141247Z 19006KT 20/15 A2995 RMK A01 T02030145  RH  069%=      5-min Rain = 0
KCL1 141248Z 19006KT 20/14 A2995 RMK A01 T02030144  RH  069%=      5-min Rain = 0
KCL1 141249Z 18007KT 20/14 A2995 RMK A01 T02030144  RH  069%=      5-min Rain = 0
KCL1 141250Z 19007KT 20/14 A2995 RMK A01 T02030144  RH  069%=      5-min Rain = 0
KCL1 141251Z 19007KT 20/14 A2995 RMK A01 T02030143  RH  069%=      5-min Rain = 0
KCL1 141252Z 19006KT 20/14 A2995 RMK A01 T02030143  RH  068%=      5-min Rain = 0
KCL1 141253Z 19006KT 20/14 A2995 RMK A01 T02030142  RH  068%=      5-min Rain = 0
KCL1 141254Z 19007KT 20/14 A2995 RMK A01 T02030142  RH  068%=      5-min Rain = 0
KCL1 141255Z 19006KT 20/14 A2995 RMK A01 T02040142  RH  068%=      5-min Rain = 0
KCL1 141256Z 20008KT 21/14 A2995 RMK A01 T02050141  RH  067%=      5-min Rain = 0
KCL1 141257Z 19007KT 21/14 A2995 RMK A01 T02060139  RH  065%=      5-min Rain = 0
KCL1 141258Z 20006KT 21/14 A2995 RMK A01 T02070140  RH  065%=      5-min Rain = 0
KCL1 141259Z 21008KT 21/14 A2995 RMK A01 T02080140  RH  065%=      5-min Rain = 0
KCL1 141300Z 20006KT 21/14 A2995 RMK A01 T02080139  RH  064%=      5-min Rain = 0
KCL1 141301Z 20007KT 21/14 A2995 RMK A01 T02090138  RH  064%=      5-min Rain = 0
KCL1 141302Z 20007KT 21/14 A2996 RMK A01 T02090139  RH  064%=      5-min Rain = 0
KCL1 141303Z 20008KT 21/14 A2995 RMK A01 T02100137  RH  063%=      5-min Rain = 0
KCL1 141304Z 20006KT 21/14 A2996 RMK A01 T02100136  RH  063%=      5-min Rain = 0
KCL1 141305Z 20007KT 21/14 A2995 RMK A01 T02100137  RH  063%=      5-min Rain = 0
KCL1 141306Z 19006KT 21/14 A2996 RMK A01 T02100138  RH  063%=      5-min Rain = 0
KCL1 141307Z 20007KT 21/14 A2996 RMK A01 T02090138  RH  064%=      5-min Rain = 0
KCL1 141308Z 19007KT 21/14 A2996 RMK A01 T02080138  RH  064%=      5-min Rain = 0
KCL1 141309Z 20007KT 21/14 A2996 RMK A01 T02070137  RH  064%=      5-min Rain = 0
KCL1 141310Z 19006KT 21/14 A2996 RMK A01 T02070135  RH  063%=      5-min Rain = 0
KCL1 141311Z 18006KT 21/14 A2996 RMK A01 T02090136  RH  063%=      5-min Rain = 0
KCL1 141312Z 19007KT 21/14 A2996 RMK A01 T02100137  RH  063%=      5-min Rain = 0
KCL1 141313Z 18006KT 21/14 A2996 RMK A01 T02110139  RH  063%=      5-min Rain = 0
KCL1 141314Z 18007KT 21/14 A2996 RMK A01 T02130139  RH  063%=      5-min Rain = 0
KCL1 141315Z 19006KT 21/14 A2996 RMK A01 T02130139  RH  063%=      5-min Rain = 0
KCL1 141316Z 19007KT 22/14 A2996 RMK A01 T02150138  RH  062%=      5-min Rain = 0
KCL1 141317Z 20007KT 22/14 A2996 RMK A01 T02150135  RH  061%=      5-min Rain = 0
KCL1 141318Z 19006KT 22/14 A2996 RMK A01 T02150135  RH  060%=      5-min Rain = 0
KCL1 141319Z 18008KT 22/14 A2996 RMK A01 T02150136  RH  061%=      5-min Rain = 0
KCL1 141320Z 19009KT 22/13 A2996 RMK A01 T02150132  RH  059%=      5-min Rain = 0
KCL1 141321Z 16007KT 22/14 A2996 RMK A01 T02150135  RH  060%=      5-min Rain = 0
KCL1 141322Z 16009KT 22/14 A2996 RMK A01 T02150137  RH  061%=      5-min Rain = 0
KCL1 141323Z 16009KT 22/14 A2996 RMK A01 T02150138  RH  061%=      5-min Rain = 0
KCL1 141324Z 16009KT 21/14 A2996 RMK A01 T02140139  RH  062%=      5-min Rain = 0
KCL1 141325Z 16010KT 21/14 A2996 RMK A01 T02140138  RH  062%=      5-min Rain = 0
KCL1 141326Z 16009KT 21/14 A2996 RMK A01 T02140138  RH  062%=      5-min Rain = 0
KCL1 141327Z 16009KT 21/14 A2996 RMK A01 T02140138  RH  062%=      5-min Rain = 0
KCL1 141328Z 16009KT 21/14 A2996 RMK A01 T02140138  RH  062%=      5-min Rain = 0
KCL1 141329Z 17009KT 22/14 A2996 RMK A01 T02150137  RH  061%=      5-min Rain = 0
KCL1 141330Z 17007KT 22/14 A2996 RMK A01 T02150137  RH  061%=      5-min Rain = 0
KCL1 141331Z 18007KT 22/14 A2996 RMK A01 T02150136  RH  061%=      5-min Rain = 0
KCL1 141332Z 18008KT 22/13 A2996 RMK A01 T02150134  RH  060%=      5-min Rain = 0
KCL1 141333Z 19007KT 22/13 A2996 RMK A01 T02150133  RH  059%=      5-min Rain = 0
KCL1 141334Z 18008KT 22/13 A2996 RMK A01 T02170132  RH  058%=      5-min Rain = 0
KCL1 141335Z 19008KT 22/13 A2996 RMK A01 T02190130  RH  057%=      5-min Rain = 0
KCL1 141336Z 20009KT 22/13 A2996 RMK A01 T02200130  RH  056%=      5-min Rain = 0
KCL1 141337Z 19009KT 22/13 A2996 RMK A01 T02210127  RH  055%=      5-min Rain = 0
KCL1 141338Z 19010KT 22/13 A2996 RMK A01 T02230125  RH  054%=      5-min Rain = 0
KCL1 141339Z 19008KT 22/13 A2996 RMK A01 T02230125  RH  054%=      5-min Rain = 0
KCL1 141340Z 19009KT 22/13 A2996 RMK A01 T02230126  RH  054%=      5-min Rain = 0
KCL1 141341Z 18007KT 22/13 A2996 RMK A01 T02230128  RH  055%=      5-min Rain = 0
KCL1 141342Z 18007KT 22/13 A2997 RMK A01 T02240130  RH  055%=      5-min Rain = 0
KCL1 141343Z 19008KT 22/13 A2997 RMK A01 T02240130  RH  055%=      5-min Rain = 0
KCL1 141344Z 18008KT 22/13 A2997 RMK A01 T02240130  RH  055%=      5-min Rain = 0
KCL1 141345Z 18008KT 22/13 A2997 RMK A01 T02220129  RH  055%=      5-min Rain = 0
KCL1 141346Z 19007KT 22/13 A2997 RMK A01 T02230127  RH  055%=      5-min Rain = 0
KCL1 141347Z 18009KT 22/13 A2997 RMK A01 T02240127  RH  054%=      5-min Rain = 0
KCL1 141348Z 17008KT 23/13 A2997 RMK A01 T02250128  RH  054%=      5-min Rain = 0
KCL1 141349Z 18008KT 22/13 A2997 RMK A01 T02240129  RH  055%=      5-min Rain = 0
KCL1 141350Z 17008KT 22/13 A2997 RMK A01 T02240131  RH  056%=      5-min Rain = 0
KCL1 141351Z 16007KT 22/13 A2997 RMK A01 T02220134  RH  057%=      5-min Rain = 0
KCL1 141352Z 17008KT 22/14 A2997 RMK A01 T02220135  RH  058%=      5-min Rain = 0
KCL1 141353Z 16009KT 22/14 A2997 RMK A01 T02210136  RH  059%=      5-min Rain = 0
KCL1 141354Z 16010KT 22/14 A2997 RMK A01 T02190136  RH  059%=      5-min Rain = 0
KCL1 141355Z 17009KT 22/13 A2997 RMK A01 T02180131  RH  058%=      5-min Rain = 0
KCL1 141356Z 16008KT 22/13 A2997 RMK A01 T02170132  RH  058%=      5-min Rain = 0
KCL1 141357Z 16006KT 22/14 A2997 RMK A01 T02180135  RH  059%=      5-min Rain = 0
KCL1 141358Z 16006KT 22/14 A2997 RMK A01 T02200136  RH  059%=      5-min Rain = 0
KCL1 141359Z 16009KT 22/14 A2997 RMK A01 T02210135  RH  058%=      5-min Rain = 0
KCL1 141400Z 15009KT 22/14 A2997 RMK A01 T02200135  RH  058%=      5-min Rain = 0
KCL1 141401Z 15009KT 22/13 A2997 RMK A01 T02180134  RH  059%=      5-min Rain = 0
KCL1 141402Z 17008KT 22/13 A2997 RMK A01 T02170134  RH  059%=      5-min Rain = 0
KCL1 141403Z 17006KT 22/13 A2997 RMK A01 T02180134  RH  059%=      5-min Rain = 0
KCL1 141404Z 17009KT 22/13 A2997 RMK A01 T02190134  RH  059%=      5-min Rain = 0
KCL1 141405Z 16009KT 22/14 A2997 RMK A01 T02190135  RH  059%=      5-min Rain = 0
KCL1 141406Z 17008KT 22/13 A2997 RMK A01 T02200134  RH  058%=      5-min Rain = 0
KCL1 141407Z 18009KT 22/13 A2997 RMK A01 T02190133  RH  058%=      5-min Rain = 0
KCL1 141408Z 17010KT 22/13 A2997 RMK A01 T02190133  RH  058%=      5-min Rain = 0
KCL1 141409Z 16008KT 22/13 A2997 RMK A01 T02190132  RH  058%=      5-min Rain = 0
KCL1 141410Z 16007KT 22/13 A2997 RMK A01 T02190133  RH  058%=      5-min Rain = 0
KCL1 141411Z 16010KT 22/13 A2997 RMK A01 T02210132  RH  057%=      5-min Rain = 0
KCL1 141412Z 16012KT 22/13 A2997 RMK A01 T02210131  RH  056%=      5-min Rain = 0
KCL1 141413Z 16012KT 22/13 A2997 RMK A01 T02210130  RH  056%=      5-min Rain = 0
KCL1 141414Z 16011KT 22/13 A2997 RMK A01 T02200129  RH  056%=      5-min Rain = 0
KCL1 141415Z 16010KT 22/13 A2997 RMK A01 T02200129  RH  056%=      5-min Rain = 0
KCL1 141416Z 17009KT 22/13 A2997 RMK A01 T02200128  RH  056%=      5-min Rain = 0
KCL1 141417Z 17009KT 22/13 A2997 RMK A01 T02220128  RH  055%=      5-min Rain = 0
KCL1 141418Z 18009KT 22/13 A2997 RMK A01 T02240128  RH  055%=      5-min Rain = 0
KCL1 141419Z 16011KT 23/13 A2997 RMK A01 T02250127  RH  054%=      5-min Rain = 0
KCL1 141420Z 17008KT 23/13 A2997 RMK A01 T02250127  RH  054%=      5-min Rain = 0
KCL1 141421Z 18007KT 23/13 A2997 RMK A01 T02250127  RH  054%=      5-min Rain = 0
KCL1 141422Z 18009KT 23/13 A2997 RMK A01 T02280125  RH  052%=      5-min Rain = 0
KCL1 141423Z 18011KT 23/12 A2997 RMK A01 T02310121  RH  050%=      5-min Rain = 0
KCL1 141424Z 18011KT 23/12 A2997 RMK A01 T02320120  RH  049%=      5-min Rain = 0
KCL1 141425Z 18012KT 23/12 A2997 RMK A01 T02330121  RH  050%=      5-min Rain = 0
KCL1 141426Z 18009KT 23/12 A2997 RMK A01 T02330122  RH  050%=      5-min Rain = 0
KCL1 141427Z 19011KT 23/12 A2997 RMK A01 T02340123  RH  050%=      5-min Rain = 0
KCL1 141428Z 19008KT 23/12 A2997 RMK A01 T02330124  RH  050%=      5-min Rain = 0
KCL1 141429Z 19012KT 23/12 A2997 RMK A01 T02330123  RH  050%=      5-min Rain = 0
KCL1 141430Z 19011KT 23/12 A2997 RMK A01 T02340122  RH  049%=      5-min Rain = 0
KCL1 141431Z 18011KT 23/12 A2997 RMK A01 T02340123  RH  050%=      5-min Rain = 0
KCL1 141432Z 18013KT 24/12 A2997 RMK A01 T02360122  RH  049%=      5-min Rain = 0
KCL1 141433Z 19012KT 24/12 A2997 RMK A01 T02360122  RH  049%=      5-min Rain = 0
KCL1 141434Z 20012KT 24/12 A2997 RMK A01 T02360123  RH  049%=      5-min Rain = 0
KCL1 141435Z 20013KT 24/12 A2997 RMK A01 T02360120  RH  048%=      5-min Rain = 0
KCL1 141436Z 19010KT 24/12 A2997 RMK A01 T02350119  RH  048%=      5-min Rain = 0
KCL1 141437Z 21010KT 24/12 A2997 RMK A01 T02360117  RH  047%=      5-min Rain = 0
KCL1 141438Z 22011KT 24/12 A2997 RMK A01 T02370115  RH  046%=      5-min Rain = 0
KCL1 141439Z 21010KT 24/11 A2997 RMK A01 T02370114  RH  046%=      5-min Rain = 0
KCL1 141440Z 21009KT 24/12 A2997 RMK A01 T02370116  RH  047%=      5-min Rain = 0
KCL1 141441Z 21011KT 24/12 A2997 RMK A01 T02370115  RH  046%=      5-min Rain = 0
KCL1 141442Z 22008KT 24/12 A2997 RMK A01 T02380115  RH  046%=      5-min Rain = 0
KCL1 141443Z 21010KT 24/11 A2997 RMK A01 T02380113  RH  045%=      5-min Rain = 0
KCL1 141444Z 20008KT 24/11 A2997 RMK A01 T02380112  RH  045%=      5-min Rain = 0
KCL1 141445Z 19010KT 24/12 A2997 RMK A01 T02390116  RH  046%=      5-min Rain = 0
KCL1 141446Z 20009KT 24/12 A2997 RMK A01 T02410118  RH  046%=      5-min Rain = 0
KCL1 141447Z 20009KT 24/12 A2997 RMK A01 T02420117  RH  046%=      5-min Rain = 0
KCL1 141448Z 19011KT 24/12 A2997 RMK A01 T02430118  RH  046%=      5-min Rain = 0
KCL1 141449Z 19012KT 24/12 A2997 RMK A01 T02430117  RH  045%=      5-min Rain = 0
KCL1 141450Z 20010KT 24/12 A2997 RMK A01 T02430117  RH  045%=      5-min Rain = 0
KCL1 141451Z 20007KT 24/12 A2997 RMK A01 T02440117  RH  045%=      5-min Rain = 0
KCL1 141452Z 20007KT 25/12 A2997 RMK A01 T02450119  RH  045%=      5-min Rain = 0
KCL1 141453Z 20010KT 25/12 A2997 RMK A01 T02460121  RH  046%=      5-min Rain = 0
KCL1 141454Z 20009KT 25/12 A2998 RMK A01 T02460119  RH  045%=      5-min Rain = 0
KCL1 141455Z 20008KT 25/12 A2998 RMK A01 T02460118  RH  045%=      5-min Rain = 0
KCL1 141456Z 20007KT 25/12 A2998 RMK A01 T02470119  RH  045%=      5-min Rain = 0
KCL1 141457Z 20009KT 25/12 A2997 RMK A01 T02480117  RH  044%=      5-min Rain = 0
KCL1 141458Z 20008KT 25/12 A2997 RMK A01 T02490117  RH  044%=      5-min Rain = 0
KCL1 141459Z 19007KT 25/12 A2997 RMK A01 T02490118  RH  044%=      5-min Rain = 0
KCL1 141500Z 19008KT 25/12 A2997 RMK A01 T02500118  RH  044%=      5-min Rain = 0
KCL1 141501Z 19009KT 25/12 A2997 RMK A01 T02520117  RH  043%=      5-min Rain = 0
KCL1 141502Z 20008KT 25/11 A2997 RMK A01 T02530113  RH  042%=      5-min Rain = 0
KCL1 141503Z 21007KT 25/12 A2997 RMK A01 T02530115  RH  042%=      5-min Rain = 0
KCL1 141504Z 19007KT 25/12 A2997 RMK A01 T02530115  RH  042%=      5-min Rain = 0
KCL1 141505Z 19010KT 26/11 A2997 RMK A01 T02550108  RH  040%=      5-min Rain = 0
KCL1 141506Z 20007KT 26/11 A2997 RMK A01 T02550108  RH  040%=      5-min Rain = 0
KCL1 141507Z 19008KT 26/11 A2997 RMK A01 T02550108  RH  040%=      5-min Rain = 0
KCL1 141508Z 19011KT 26/11 A2997 RMK A01 T02570106  RH  038%=      5-min Rain = 0
KCL1 141509Z 20009KT 26/11 A2997 RMK A01 T02580105  RH  038%=      5-min Rain = 0
KCL1 141510Z 19008KT 26/11 A2997 RMK A01 T02570105  RH  038%=      5-min Rain = 0
KCL1 141511Z 19007KT 26/11 A2997 RMK A01 T02560107  RH  039%=      5-min Rain = 0
KCL1 141512Z 18008KT 26/11 A2997 RMK A01 T02560110  RH  040%=      5-min Rain = 0
KCL1 141513Z 18009KT 26/11 A2997 RMK A01 T02580110  RH  040%=      5-min Rain = 0
KCL1 141514Z 18009KT 26/11 A2997 RMK A01 T02590108  RH  039%=      5-min Rain = 0
KCL1 141515Z 18007KT 26/11 A2997 RMK A01 T02620109  RH  039%=      5-min Rain = 0
KCL1 141516Z 17009KT 26/11 A2997 RMK A01 T02630110  RH  038%=      5-min Rain = 0
KCL1 141517Z 17010KT 26/11 A2998 RMK A01 T02630110  RH  038%=      5-min Rain = 0
KCL1 141518Z 17007KT 26/11 A2998 RMK A01 T02630110  RH  038%=      5-min Rain = 0
KCL1 141519Z 17008KT 27/11 A2998 RMK A01 T02650110  RH  038%=      5-min Rain = 0
KCL1 141520Z 17007KT 27/11 A2998 RMK A01 T02660110  RH  038%=      5-min Rain = 0
KCL1 141521Z 21006KT 27/11 A2998 RMK A01 T02660110  RH  037%=      5-min Rain = 0
KCL1 141522Z 20006KT 27/11 A2998 RMK A01 T02680108  RH  037%=      5-min Rain = 0
KCL1 141523Z 20004KT 27/11 A2998 RMK A01 T02680107  RH  036%=      5-min Rain = 0
KCL1 141524Z 21008KT 27/11 A2998 RMK A01 T02680105  RH  036%=      5-min Rain = 0
KCL1 141525Z 23008KT 27/10 A2998 RMK A01 T02680100  RH  035%=      5-min Rain = 0
KCL1 141526Z 23006KT 27/10 A2998 RMK A01 T02700095  RH  033%=      5-min Rain = 0
KCL1 141527Z 24005KT 27/09 A2998 RMK A01 T02710094  RH  033%=      5-min Rain = 0
KCL1 141528Z 25007KT 27/09 A2998 RMK A01 T02730094  RH  032%=      5-min Rain = 0
KCL1 141529Z 25009KT 28/09 A2998 RMK A01 T02750092  RH  032%=      5-min Rain = 0
KCL1 141530Z 24010KT 28/09 A2998 RMK A01 T02750091  RH  031%=      5-min Rain = 0
KCL1 141531Z 23009KT 27/09 A2998 RMK A01 T02730088  RH  031%=      5-min Rain = 0
KCL1 141532Z 22007KT 27/09 A2998 RMK A01 T02720088  RH  031%=      5-min Rain = 0
KCL1 141533Z 23010KT 27/08 A2998 RMK A01 T02710083  RH  031%=      5-min Rain = 0
KCL1 141534Z 24011KT 27/08 A2998 RMK A01 T02720081  RH  030%=      5-min Rain = 0
KCL1 141535Z 23007KT 27/08 A2998 RMK A01 T02740084  RH  030%=      5-min Rain = 0
KCL1 141536Z 23009KT 27/08 A2998 RMK A01 T02740084  RH  030%=      5-min Rain = 0
KCL1 141537Z 24005KT 27/09 A2998 RMK A01 T02730085  RH  031%=      5-min Rain = 0
KCL1 141538Z 26005KT 27/09 A2998 RMK A01 T02730087  RH  031%=      5-min Rain = 0
KCL1 141539Z 20005KT 28/09 A2998 RMK A01 T02750087  RH  031%=      5-min Rain = 0
KCL1 141540Z 25003KT 28/09 A2998 RMK A01 T02760089  RH  031%=      5-min Rain = 0
KCL1 141541Z 22005KT 28/09 A2998 RMK A01 T02790090  RH  030%=      5-min Rain = 0
KCL1 141542Z 19007KT 28/09 A2998 RMK A01 T02810087  RH  030%=      5-min Rain = 0
KCL1 141543Z 19008G13KT 28/09 A2998 RMK A01 T02800086  RH  030%=      5-min Rain = 0
KCL1 141544Z 20010KT 28/09 A2998 RMK A01 T02810085  RH  029%=      5-min Rain = 0
KCL1 141545Z 22010KT 28/08 A2998 RMK A01 T02810084  RH  029%=      5-min Rain = 0
KCL1 141546Z 23009KT 28/09 A2998 RMK A01 T02820085  RH  029%=      5-min Rain = 0
KCL1 141547Z 19005KT 28/09 A2998 RMK A01 T02820087  RH  029%=      5-min Rain = 0
KCL1 141548Z 22006KT 28/09 A2998 RMK A01 T02840089  RH  030%=      5-min Rain = 0
KCL1 141549Z 23008KT 29/09 A2998 RMK A01 T02850086  RH  029%=      5-min Rain = 0
KCL1 141550Z 21008KT 29/09 A2998 RMK A01 T02850087  RH  029%=      5-min Rain = 0
KCL1 141551Z 17007KT 29/09 A2998 RMK A01 T02850091  RH  030%=      5-min Rain = 0
KCL1 141552Z 18006KT 29/09 A2998 RMK A01 T02860092  RH  030%=      5-min Rain = 0
KCL1 141553Z 19009KT 29/09 A2998 RMK A01 T02890085  RH  028%=      5-min Rain = 0
KCL1 141554Z 21008KT 29/08 A2998 RMK A01 T02890075  RH  026%=      5-min Rain = 0
KCL1 141555Z 22008KT 29/08 A2998 RMK A01 T02900077  RH  026%=      5-min Rain = 0
KCL1 141556Z 21005KT 29/08 A2998 RMK A01 T02890078  RH  027%=      5-min Rain = 0
KCL1 141557Z 21008KT 29/08 A2998 RMK A01 T02890078  RH  027%=      5-min Rain = 0
KCL1 141558Z 22008KT 29/07 A2998 RMK A01 T02920071  RH  025%=      5-min Rain = 0
KCL1 141559Z 22007KT 29/06 A2998 RMK A01 T02940062  RH  023%=      5-min Rain = 0
KCL1 141600Z 23009KT 29/06 A2998 RMK A01 T02940062  RH  023%=      5-min Rain = 0
KCL1 141601Z 23008KT 29/06 A2998 RMK A01 T02940063  RH  023%=      5-min Rain = 0
KCL1 141602Z 21008KT 29/07 A2998 RMK A01 T02940068  RH  024%=      5-min Rain = 0
KCL1 141603Z 20010KT 30/06 A2998 RMK A01 T02960062  RH  023%=      5-min Rain = 0
KCL1 141604Z 22009KT 30/06 A2998 RMK A01 T02960059  RH  022%=      5-min Rain = 0
KCL1 141605Z 20009KT 30/06 A2998 RMK A01 T02950058  RH  022%=      5-min Rain = 0
KCL1 141606Z 20009KT 30/06 A2998 RMK A01 T02950055  RH  022%=      5-min Rain = 0
KCL1 141607Z 22007KT 30/05 A2998 RMK A01 T02950053  RH  022%=      5-min Rain = 0
KCL1 141608Z 26007KT 29/06 A2998 RMK A01 T02940055  RH  022%=      5-min Rain = 0
KCL1 141609Z 22005KT 30/06 A2997 RMK A01 T02960057  RH  022%=      5-min Rain = 0
KCL1 141610Z 22007KT 30/06 A2997 RMK A01 T02990055  RH  021%=      5-min Rain = 0
KCL1 141611Z 20005KT 30/05 A2997 RMK A01 T02990054  RH  021%=      5-min Rain = 0
KCL1 141612Z 21006KT 30/05 A2997 RMK A01 T03000053  RH  021%=      5-min Rain = 0
KCL1 141613Z 22006KT 30/05 A2997 RMK A01 T03000053  RH  021%=      5-min Rain = 0
KCL1 141614Z 26008KT 30/05 A2997 RMK A01 T03010052  RH  021%=      5-min Rain = 0
KCL1 141615Z 27005KT 30/05 A2997 RMK A01 T03030049  RH  020%=      5-min Rain = 0
KCL1 141616Z 22004KT 31/05 A2997 RMK A01 T03060054  RH  021%=      5-min Rain = 0
KCL1 141617Z 22005KT 31/05 A2997 RMK A01 T03090051  RH  020%=      5-min Rain = 0
KCL1 141618Z 23005KT 31/05 A2997 RMK A01 T03100053  RH  020%=      5-min Rain = 0
KCL1 141619Z 22005KT 31/06 A2997 RMK A01 T03110055  RH  020%=      5-min Rain = 0
KCL1 141620Z 23003KT 31/04 A2997 RMK A01 T03110036  RH  018%=      5-min Rain = 0
KCL1 141621Z 21005KT 31/04 A2997 RMK A01 T03100039  RH  018%=      5-min Rain = 0
KCL1 141622Z 22006KT 31/04 A2997 RMK A01 T03100042  RH  018%=      5-min Rain = 0
KCL1 141623Z 25007KT 31/04 A2997 RMK A01 T03070039  RH  018%=      5-min Rain = 0
KCL1 141624Z 25007G12KT 31/01 A2997 RMK A01 T03060007  RH  015%=      5-min Rain = 0
KCL1 141625Z 25005G10KT 30/00 A2997 RMK A01 T03040004  RH  014%=      5-min Rain = 0
KCL1 141626Z 27013KT 31/01 A2997 RMK A01 T03050005  RH  014%=      5-min Rain = 0
KCL1 141627Z 29009G14KT 31/00 A2997 RMK A01 T03080000  RH  014%=      5-min Rain = 0
KCL1 141628Z 26011KT 31/00 A2997 RMK A01 T03090003  RH  014%=      5-min Rain = 0
KCL1 141629Z 25010KT 31/00 A2997 RMK A01 T03100004  RH  014%=      5-min Rain = 0
KCL1 141630Z 27013KT 31/00 A2997 RMK A01 T031100-0  RH  014%=      5-min Rain = 0
KCL1 141631Z 28015KT 31/M00 A2997 RMK A01 T03101002  RH  013%=      5-min Rain = 0
KCL1 141632Z 28011KT 31/M01 A2997 RMK A01 T03101006  RH  013%=      5-min Rain = 0
KCL1 141633Z 26009KT 31/M01 A2997 RMK A01 T03081007  RH  013%=      5-min Rain = 0
KCL1 141634Z 25008G14KT 31/M01 A2997 RMK A01 T03081006  RH  013%=      5-min Rain = 0
KCL1 141635Z 27012KT 31/M01 A2997 RMK A01 T03101005  RH  013%=      5-min Rain = 0
KCL1 141636Z 27012KT 31/M01 A2997 RMK A01 T03121005  RH  013%=      5-min Rain = 0
KCL1 141637Z 27012KT 31/M00 A2997 RMK A01 T03121004  RH  013%=      5-min Rain = 0
KCL1 141638Z 27009KT 31/M00 A2997 RMK A01 T03121002  RH  013%=      5-min Rain = 0
KCL1 141639Z 27010KT 31/M00 A2997 RMK A01 T03121001  RH  013%=      5-min Rain = 0
KCL1 141640Z 28009KT 31/M00 A2997 RMK A01 T03141001  RH  013%=      5-min Rain = 0
KCL1 141641Z 28011KT 32/M00 A2997 RMK A01 T03161002  RH  013%=      5-min Rain = 0
KCL1 141642Z 26011KT 32/M01 A2997 RMK A01 T03161007  RH  012%=      5-min Rain = 0
KCL1 141643Z 25009KT 31/M01 A2997 RMK A01 T03141010  RH  012%=      5-min Rain = 0
KCL1 141644Z 26009KT 31/M01 A2997 RMK A01 T03131010  RH  012%=      5-min Rain = 0
KCL1 141645Z 27010KT 31/M01 A2997 RMK A01 T03121009  RH  013%=      5-min Rain = 0
KCL1 141646Z 28007KT 31/M01 A2997 RMK A01 T03131006  RH  013%=      5-min Rain = 0
KCL1 141647Z 27006KT 31/M01 A2997 RMK A01 T03141008  RH  013%=      5-min Rain = 0
KCL1 141648Z 26004KT 31/M00 A2997 RMK A01 T03141003  RH  013%=      5-min Rain = 0
KCL1 141649Z 29005KT 32/M00 A2997 RMK A01 T03171001  RH  013%=      5-min Rain = 0
KCL1 141650Z 30006G11KT 32/00 A2997 RMK A01 T03210001  RH  013%=      5-min Rain = 0
KCL1 141651Z 29007G12KT 32/M00 A2997 RMK A01 T03241002  RH  012%=      5-min Rain = 0
KCL1 141652Z 24006KT 32/M01 A2997 RMK A01 T03221006  RH  012%=      5-min Rain = 0
KCL1 141653Z 26012KT 32/M00 A2997 RMK A01 T03211003  RH  013%=      5-min Rain = 0
KCL1 141654Z 27016KT 32/M01 A2997 RMK A01 T03201008  RH  012%=      5-min Rain = 0
KCL1 141655Z 27015KT 32/M01 A2997 RMK A01 T03161011  RH  012%=      5-min Rain = 0
KCL1 141656Z 27014KT 31/M01 A2997 RMK A01 T03131012  RH  012%=      5-min Rain = 0
KCL1 141657Z 27012KT 31/M01 A2997 RMK A01 T03101013  RH  012%=      5-min Rain = 0
KCL1 141658Z 27012KT 31/M01 A2997 RMK A01 T03101011  RH  013%=      5-min Rain = 0
KCL1 141659Z 27011KT 31/M01 A2997 RMK A01 T03101012  RH  012%=      5-min Rain = 0
KCL1 141700Z 26010KT 31/M01 A2997 RMK A01 T03101012  RH  012%=      5-min Rain = 0
KCL1 141701Z 27007KT 31/M01 A2997 RMK A01 T03111012  RH  012%=      5-min Rain = 0
KCL1 141702Z 28007KT 31/M01 A2997 RMK A01 T03111007  RH  013%=      5-min Rain = 0
KCL1 141703Z 27010KT 32/M01 A2997 RMK A01 T03151006  RH  013%=      5-min Rain = 0
KCL1 141704Z 26011KT 32/M01 A2997 RMK A01 T03171005  RH  013%=      5-min Rain = 0
KCL1 141705Z 28011KT 32/M00 A2997 RMK A01 T03181003  RH  013%=      5-min Rain = 0
KCL1 141706Z 26012KT 32/M01 A2997 RMK A01 T03201006  RH  012%=      5-min Rain = 0
KCL1 141707Z 27010KT 32/M01 A2997 RMK A01 T03191010  RH  012%=      5-min Rain = 0
KCL1 141708Z 26007KT 32/M01 A2997 RMK A01 T03161011  RH  012%=      5-min Rain = 0
KCL1 141709Z 29007KT 32/M01 A2997 RMK A01 T03151008  RH  013%=      5-min Rain = 0
KCL1 141710Z 29011KT 32/M01 A2997 RMK A01 T03151005  RH  013%=      5-min Rain = 0
KCL1 141711Z 30009KT 32/M00 A2997 RMK A01 T03151002  RH  013%=      5-min Rain = 0
KCL1 141712Z 30008G13KT 31/00 A2997 RMK A01 T03140004  RH  014%=      5-min Rain = 0
KCL1 141713Z 31010KT 32/01 A2997 RMK A01 T03150005  RH  014%=      5-min Rain = 0
KCL1 141714Z 31009KT 32/00 A2997 RMK A01 T031500-0  RH  013%=      5-min Rain = 0
KCL1 141715Z 27007KT 32/00 A2997 RMK A01 T03160003  RH  014%=      5-min Rain = 0
KCL1 141716Z 26008G13KT 32/00 A2997 RMK A01 T03170000  RH  013%=      5-min Rain = 0
KCL1 141717Z 27010KT 32/M00 A2997 RMK A01 T03181003  RH  013%=      5-min Rain = 0
KCL1 141718Z 28011KT 32/00 A2997 RMK A01 T03180002  RH  013%=      5-min Rain = 0
KCL1 141719Z 26010KT 32/01 A2997 RMK A01 T03160005  RH  014%=      5-min Rain = 0
KCL1 141720Z 28008KT 32/01 A2997 RMK A01 T03150009  RH  014%=      5-min Rain = 0
KCL1 141721Z 30009KT 32/01 A2997 RMK A01 T03150010  RH  014%=      5-min Rain = 0
KCL1 141722Z 29007KT 31/01 A2997 RMK A01 T03120009  RH  014%=      5-min Rain = 0
KCL1 141723Z 29005KT 31/01 A2997 RMK A01 T03090008  RH  015%=      5-min Rain = 0
KCL1 141724Z 31004KT 31/01 A2997 RMK A01 T03090013  RH  015%=      5-min Rain = 0
KCL1 141725Z 31006KT 31/01 A2997 RMK A01 T03110012  RH  015%=      5-min Rain = 0
KCL1 141726Z 32005KT 31/01 A2997 RMK A01 T03110011  RH  015%=      5-min Rain = 0
KCL1 141727Z 33007KT 31/01 A2997 RMK A01 T03110013  RH  015%=      5-min Rain = 0
KCL1 141728Z 31005KT 31/02 A2997 RMK A01 T03120016  RH  015%=      5-min Rain = 0
KCL1 141729Z 34004KT 31/01 A2997 RMK A01 T03120014  RH  015%=      5-min Rain = 0
KCL1 141730Z 30006KT 31/01 A2997 RMK A01 T03120012  RH  015%=      5-min Rain = 0
KCL1 141731Z 32006KT 31/01 A2997 RMK A01 T03120012  RH  015%=      5-min Rain = 0
KCL1 141732Z 31009KT 32/02 A2997 RMK A01 T03160016  RH  015%=      5-min Rain = 0
KCL1 141733Z 30011KT 32/02 A2997 RMK A01 T03190015  RH  014%=      5-min Rain = 0
KCL1 141734Z 33009KT 32/02 A2997 RMK A01 T03190015  RH  014%=      5-min Rain = 0
KCL1 141735Z 32008KT 32/02 A2997 RMK A01 T03210016  RH  014%=      5-min Rain = 0
KCL1 141736Z 30013KT 32/01 A2996 RMK A01 T03230006  RH  013%=      5-min Rain = 0
KCL1 141737Z 30011KT 32/M00 A2996 RMK A01 T03231002  RH  012%=      5-min Rain = 0
KCL1 141738Z 30008KT 32/M00 A2997 RMK A01 T03241001  RH  012%=      5-min Rain = 0
KCL1 141739Z 32011KT 33/00 A2996 RMK A01 T03280003  RH  013%=      5-min Rain = 0
KCL1 141740Z 29012KT 33/00 A2996 RMK A01 T032900-0  RH  012%=      5-min Rain = 0
KCL1 141741Z 30012KT 33/M00 A2996 RMK A01 T03291003  RH  012%=      5-min Rain = 0
KCL1 141742Z 28012KT 33/M01 A2997 RMK A01 T03261005  RH  012%=      5-min Rain = 0
KCL1 141743Z 25007KT 33/M00 A2997 RMK A01 T03251003  RH  012%=      5-min Rain = 0
KCL1 141744Z 26004KT 32/M00 A2997 RMK A01 T03241004  RH  012%=      5-min Rain = 0
KCL1 141745Z 31008KT 32/00 A2997 RMK A01 T03240003  RH  013%=      5-min Rain = 0
KCL1 141746Z 32009KT 32/01 A2997 RMK A01 T03240009  RH  013%=      5-min Rain = 0
KCL1 141747Z 33008KT 32/01 A2997 RMK A01 T03220006  RH  013%=      5-min Rain = 0
KCL1 141748Z 30009KT 32/01 A2997 RMK A01 T03210010  RH  014%=      5-min Rain = 0
KCL1 141749Z 27006KT 32/01 A2997 RMK A01 T03200007  RH  014%=      5-min Rain = 0
KCL1 141750Z 30012KT 32/01 A2996 RMK A01 T03180007  RH  014%=      5-min Rain = 0
KCL1 141751Z 31012KT 32/01 A2996 RMK A01 T03170012  RH  014%=      5-min Rain = 0
KCL1 141752Z 30012KT 32/01 A2996 RMK A01 T03210014  RH  014%=      5-min Rain = 0
KCL1 141753Z 31012KT 32/01 A2997 RMK A01 T03210012  RH  014%=      5-min Rain = 0
KCL1 141754Z 31008KT 32/01 A2997 RMK A01 T03180012  RH  014%=      5-min Rain = 0
KCL1 141755Z 33009G14KT 32/01 A2997 RMK A01 T03180014  RH  014%=      5-min Rain = 0
KCL1 141756Z 32011KT 32/01 A2997 RMK A01 T03150012  RH  014%=      5-min Rain = 0
KCL1 141757Z 35007KT 31/01 A2997 RMK A01 T03120012  RH  015%=      5-min Rain = 0
KCL1 141758Z 32007KT 31/02 A2997 RMK A01 T03110015  RH  015%=      5-min Rain = 0
KCL1 141759Z 34010KT 32/02 A2997 RMK A01 T03150017  RH  015%=      5-min Rain = 0
KCL1 141800Z 33011KT 32/02 A2996 RMK A01 T03170018  RH  015%=      5-min Rain = 0
KCL1 141801Z 28010KT 32/01 A2996 RMK A01 T03170014  RH  014%=      5-min Rain = 0
KCL1 141802Z 28009KT 32/01 A2996 RMK A01 T03170011  RH  014%=      5-min Rain = 0
KCL1 141803Z 31011G16KT 32/01 A2996 RMK A01 T03160010  RH  014%=      5-min Rain = 0
KCL1 141804Z 30008KT 32/01 A2996 RMK A01 T03150011  RH  014%=      5-min Rain = 0
KCL1 141805Z 32009KT 32/01 A2996 RMK A01 T03150012  RH  014%=      5-min Rain = 0
KCL1 141806Z 32010KT 32/02 A2996 RMK A01 T03160015  RH  015%=      5-min Rain = 0
KCL1 141807Z 31008KT 32/02 A2996 RMK A01 T03180015  RH  014%=      5-min Rain = 0
KCL1 141808Z 32008KT 32/01 A2996 RMK A01 T03190014  RH  014%=      5-min Rain = 0
KCL1 141809Z 29008KT 32/01 A2996 RMK A01 T03170014  RH  014%=      5-min Rain = 0
KCL1 141810Z 29010G16KT 32/01 A2996 RMK A01 T03170014  RH  015%=      5-min Rain = 0
KCL1 141811Z 33011KT 32/01 A2996 RMK A01 T03180013  RH  014%=      5-min Rain = 0
KCL1 141812Z 32010KT 32/01 A2996 RMK A01 T03190014  RH  014%=      5-min Rain = 0
KCL1 141813Z 31012KT 32/01 A2996 RMK A01 T03220013  RH  014%=      5-min Rain = 0
KCL1 141814Z 31010KT 32/01 A2996 RMK A01 T03210010  RH  014%=      5-min Rain = 0
KCL1 141815Z 28010KT 32/01 A2996 RMK A01 T03200013  RH  014%=      5-min Rain = 0
KCL1 141816Z 28010KT 32/01 A2996 RMK A01 T03220012  RH  014%=      5-min Rain = 0
KCL1 141817Z 28008KT 32/01 A2996 RMK A01 T03220012  RH  014%=      5-min Rain = 0
KCL1 141818Z 28007KT 32/01 A2996 RMK A01 T03230010  RH  014%=      5-min Rain = 0
KCL1 141819Z 28006KT 32/01 A2996 RMK A01 T03210010  RH  014%=      5-min Rain = 0
KCL1 141820Z 27006G13KT 32/01 A2996 RMK A01 T03210014  RH  014%=      5-min Rain = 0
KCL1 141821Z 28011KT 32/01 A2996 RMK A01 T03240012  RH  014%=      5-min Rain = 0
KCL1 141822Z 29009KT 32/01 A2996 RMK A01 T03220008  RH  013%=      5-min Rain = 0
KCL1 141823Z 30008KT 32/01 A2996 RMK A01 T03180010  RH  014%=      5-min Rain = 0
KCL1 141824Z 32008KT 32/01 A2996 RMK A01 T03190010  RH  014%=      5-min Rain = 0
KCL1 141825Z 26009KT 32/01 A2996 RMK A01 T03200013  RH  014%=      5-min Rain = 0
KCL1 141826Z 27008KT 32/01 A2996 RMK A01 T03220011  RH  014%=      5-min Rain = 0
KCL1 141827Z 31005KT 32/01 A2996 RMK A01 T03210014  RH  014%=      5-min Rain = 0
KCL1 141828Z 27005KT 32/01 A2996 RMK A01 T03220014  RH  014%=      5-min Rain = 0
KCL1 141829Z 28010KT 32/02 A2996 RMK A01 T03220015  RH  014%=      5-min Rain = 0
KCL1 141830Z 27006KT 32/02 A2996 RMK A01 T03210016  RH  014%=      5-min Rain = 0
KCL1 141831Z 26003KT 32/02 A2996 RMK A01 T03230024  RH  015%=      5-min Rain = 0
KCL1 141832Z 29003KT 33/02 A2996 RMK A01 T03270020  RH  014%=      5-min Rain = 0
KCL1 141833Z 32007KT 33/02 A2995 RMK A01 T03290021  RH  014%=      5-min Rain = 0
KCL1 141834Z 35005KT 33/02 A2995 RMK A01 T03290019  RH  014%=      5-min Rain = 0
KCL1 141835Z 30005KT 33/02 A2995 RMK A01 T03300022  RH  014%=      5-min Rain = 0
KCL1 141836Z 31009KT 33/02 A2995 RMK A01 T03320018  RH  014%=      5-min Rain = 0
KCL1 141837Z 29008KT 33/02 A2995 RMK A01 T03310015  RH  013%=      5-min Rain = 0
KCL1 141838Z 31007KT 33/02 A2995 RMK A01 T03280015  RH  014%=      5-min Rain = 0
KCL1 141839Z 31006KT 33/02 A2995 RMK A01 T03260016  RH  014%=      5-min Rain = 0
KCL1 141840Z 27005G11KT 33/02 A2995 RMK A01 T03290018  RH  014%=      5-min Rain = 0
KCL1 141841Z 26009KT 33/01 A2995 RMK A01 T03310014  RH  013%=      5-min Rain = 0
KCL1 141842Z 27009KT 33/02 A2995 RMK A01 T03310015  RH  013%=      5-min Rain = 0
KCL1 141843Z 27007KT 33/01 A2995 RMK A01 T03300012  RH  013%=      5-min Rain = 0
KCL1 141844Z 27007KT 33/01 A2995 RMK A01 T03280011  RH  013%=      5-min Rain = 0
KCL1 141845Z 25004KT 33/01 A2995 RMK A01 T03260010  RH  013%=      5-min Rain = 0
KCL1 141846Z 30006KT 32/01 A2995 RMK A01 T03240012  RH  014%=      5-min Rain = 0
KCL1 141847Z 34004KT 32/01 A2995 RMK A01 T03240009  RH  013%=      5-min Rain = 0
KCL1 141848Z 31005KT 32/01 A2995 RMK A01 T03240011  RH  014%=      5-min Rain = 0
KCL1 141849Z 29006KT 33/01 A2995 RMK A01 T03260010  RH  013%=      5-min Rain = 0
KCL1 141850Z 29006KT 33/01 A2995 RMK A01 T03270011  RH  013%=      5-min Rain = 0
KCL1 141851Z 23006KT 33/01 A2995 RMK A01 T03290012  RH  013%=      5-min Rain = 0
KCL1 141852Z 21007KT 33/01 A2995 RMK A01 T03290009  RH  013%=      5-min Rain = 0
KCL1 141853Z 24008KT 33/01 A2995 RMK A01 T03270009  RH  013%=      5-min Rain = 0
KCL1 141854Z 26006KT 32/01 A2995 RMK A01 T03240006  RH  013%=      5-min Rain = 0
KCL1 141855Z 23004KT 32/01 A2995 RMK A01 T03220010  RH  014%=      5-min Rain = 0
KCL1 141856Z 25006KT 33/01 A2995 RMK A01 T03250009  RH  013%=      5-min Rain = 0
KCL1 141857Z 23005KT 33/01 A2995 RMK A01 T03260010  RH  013%=      5-min Rain = 0
KCL1 141858Z 23006KT 33/01 A2995 RMK A01 T03260011  RH  013%=      5-min Rain = 0
KCL1 141859Z 24006KT 33/01 A2995 RMK A01 T03280011  RH  013%=      5-min Rain = 0
KCL1 141900Z 22006KT 33/01 A2995 RMK A01 T03280009  RH  013%=      5-min Rain = 0
KCL1 141901Z 19003KT 33/01 A2995 RMK A01 T03280009  RH  013%=      5-min Rain = 0
KCL1 141902Z 18004KT 33/01 A2995 RMK A01 T03270009  RH  013%=      5-min Rain = 0
KCL1 141903Z 24002KT 32/01 A2995 RMK A01 T03240006  RH  013%=      5-min Rain = 0
KCL1 141904Z 10001KT 32/01 A2995 RMK A01 T03200009  RH  014%=      5-min Rain = 0
KCL1 141905Z 06002KT 32/01 A2995 RMK A01 T03190009  RH  014%=      5-min Rain = 0
KCL1 141906Z 05001KT 32/01 A2995 RMK A01 T03190008  RH  014%=      5-min Rain = 0
KCL1 141907Z 01002KT 32/01 A2995 RMK A01 T03170008  RH  014%=      5-min Rain = 0
KCL1 141908Z 34002KT 32/01 A2995 RMK A01 T03170010  RH  014%=      5-min Rain = 0
KCL1 141909Z 28003KT 32/02 A2995 RMK A01 T03200017  RH  015%=      5-min Rain = 0
KCL1 141910Z 23007KT 33/02 A2994 RMK A01 T03250017  RH  014%=      5-min Rain = 0
KCL1 141911Z 24006KT 33/01 A2994 RMK A01 T03270012  RH  014%=      5-min Rain = 0
KCL1 141912Z 28006KT 33/01 A2994 RMK A01 T03250013  RH  014%=      5-min Rain = 0
KCL1 141913Z 30004KT 32/01 A2994 RMK A01 T03210010  RH  014%=      5-min Rain = 0
KCL1 141914Z 31002KT 32/01 A2994 RMK A01 T03180012  RH  014%=      5-min Rain = 0
KCL1 141915Z 26002KT 32/02 A2994 RMK A01 T03180015  RH  015%=      5-min Rain = 0
KCL1 141916Z 25001KT 32/01 A2994 RMK A01 T03190012  RH  014%=      5-min Rain = 0
KCL1 141917Z 24003KT 32/02 A2994 RMK A01 T03190016  RH  014%=      5-min Rain = 0
KCL1 141918Z 23005KT 32/02 A2994 RMK A01 T03240015  RH  014%=      5-min Rain = 0
KCL1 141919Z 20004KT 33/01 A2994 RMK A01 T03250014  RH  014%=      5-min Rain = 0
KCL1 141920Z 14005KT 33/02 A2994 RMK A01 T03250017  RH  014%=      5-min Rain = 0
KCL1 141921Z 11004KT 33/03 A2994 RMK A01 T03290026  RH  015%=      5-min Rain = 0
KCL1 141922Z 22002KT 33/02 A2994 RMK A01 T03330022  RH  014%=      5-min Rain = 0
KCL1 141923Z 27004KT 33/02 A2994 RMK A01 T03330020  RH  014%=      5-min Rain = 0
KCL1 141924Z 24002G7KT 33/02 A2994 RMK A01 T03310018  RH  014%=      5-min Rain = 0
KCL1 141925Z 25007KT 33/02 A2994 RMK A01 T03300017  RH  014%=      5-min Rain = 0
KCL1 141926Z 26008KT 33/02 A2994 RMK A01 T03300016  RH  014%=      5-min Rain = 0
KCL1 141927Z 25008KT 33/02 A2994 RMK A01 T03280016  RH  014%=      5-min Rain = 0
KCL1 141928Z 26008KT 33/02 A2994 RMK A01 T03270015  RH  014%=      5-min Rain = 0
KCL1 141929Z 26009KT 33/02 A2994 RMK A01 T03270015  RH  014%=      5-min Rain = 0
KCL1 141930Z 27007KT 33/02 A2994 RMK A01 T03270017  RH  014%=      5-min Rain = 0
KCL1 141931Z 29005KT 33/02 A2994 RMK A01 T03260015  RH  014%=      5-min Rain = 0
KCL1 141932Z 24005KT 32/02 A2994 RMK A01 T03240017  RH  014%=      5-min Rain = 0
KCL1 141933Z 28006KT 32/02 A2994 RMK A01 T03230018  RH  014%=      5-min Rain = 0
KCL1 141934Z 31008KT 33/02 A2993 RMK A01 T03270023  RH  015%=      5-min Rain = 0
KCL1 141935Z 32007KT 33/02 A2993 RMK A01 T03330022  RH  014%=      5-min Rain = 0
KCL1 141936Z 31010KT 34/02 A2993 RMK A01 T03350021  RH  014%=      5-min Rain = 0
KCL1 141937Z 30007KT 34/02 A2993 RMK A01 T03350020  RH  014%=      5-min Rain = 0
KCL1 141938Z 31006KT 34/02 A2993 RMK A01 T03350020  RH  014%=      5-min Rain = 0
KCL1 141939Z 30003KT 33/02 A2993 RMK A01 T03320016  RH  013%=      5-min Rain = 0
KCL1 141940Z 27003KT 33/01 A2993 RMK A01 T03270014  RH  014%=      5-min Rain = 0
KCL1 141941Z 33003KT 32/02 A2993 RMK A01 T03240017  RH  014%=      5-min Rain = 0
KCL1 141942Z 33005KT 32/02 A2993 RMK A01 T03220015  RH  014%=      5-min Rain = 0
KCL1 141943Z 31004KT 32/01 A2993 RMK A01 T03200014  RH  014%=      5-min Rain = 0
KCL1 141944Z 32004KT 32/01 A2993 RMK A01 T03190014  RH  014%=      5-min Rain = 0
KCL1 141945Z 33002KT 32/01 A2993 RMK A01 T03190013  RH  014%=      5-min Rain = 0
KCL1 141946Z 33001KT 32/01 A2993 RMK A01 T03190012  RH  014%=      5-min Rain = 0
KCL1 141947Z 34002KT 32/01 A2993 RMK A01 T03190013  RH  014%=      5-min Rain = 0
KCL1 141948Z 32002KT 32/02 A2992 RMK A01 T03190015  RH  014%=      5-min Rain = 0
KCL1 141949Z 34003KT 32/01 A2992 RMK A01 T03200014  RH  014%=      5-min Rain = 0
KCL1 141950Z 02002KT 32/02 A2992 RMK A01 T03200018  RH  015%=      5-min Rain = 0
KCL1 141951Z 07003KT 32/02 A2993 RMK A01 T03230018  RH  014%=      5-min Rain = 0
KCL1 141952Z 08001KT 32/01 A2993 RMK A01 T03230012  RH  014%=      5-min Rain = 0
KCL1 141953Z 00000KT 32/01 A2993 RMK A01 T03210010  RH  014%=      5-min Rain = 0
KCL1 141954Z 10002KT 32/01 A2993 RMK A01 T03200012  RH  014%=      5-min Rain = 0
KCL1 141955Z 10002KT 32/01 A2993 RMK A01 T03200014  RH  014%=      5-min Rain = 0
KCL1 141956Z 08003KT 32/02 A2993 RMK A01 T03200015  RH  014%=      5-min Rain = 0
KCL1 141957Z 06001KT 32/02 A2993 RMK A01 T03190016  RH  015%=      5-min Rain = 0
KCL1 141958Z 31000KT 32/01 A2993 RMK A01 T03200014  RH  014%=      5-min Rain = 0
KCL1 141959Z 31000KT 32/01 A2993 RMK A01 T03200013  RH  014%=      5-min Rain = 0
KCL1 142000Z 31001KT 32/02 A2993 RMK A01 T03200015  RH  014%=      5-min Rain = 0
KCL1 142001Z 30002KT 32/02 A2993 RMK A01 T03210020  RH  015%=      5-min Rain = 0
KCL1 142002Z 34002KT 32/02 A2993 RMK A01 T03230017  RH  014%=      5-min Rain = 0
KCL1 142003Z 26001G6KT 32/02 A2992 RMK A01 T03240017  RH  014%=      5-min Rain = 0
KCL1 142004Z 27005KT 33/02 A2992 RMK A01 T03250020  RH  014%=      5-min Rain = 0
KCL1 142005Z 26005KT 33/02 A2992 RMK A01 T03260020  RH  014%=      5-min Rain = 0
KCL1 142006Z 24003KT 33/02 A2992 RMK A01 T03260019  RH  014%=      5-min Rain = 0
KCL1 142007Z 27002KT 33/02 A2992 RMK A01 T03260021  RH  014%=      5-min Rain = 0
KCL1 142008Z 29003KT 33/02 A2992 RMK A01 T03280020  RH  014%=      5-min Rain = 0
KCL1 142009Z 29002KT 33/02 A2992 RMK A01 T03280020  RH  014%=      5-min Rain = 0
KCL1 142010Z 11001KT 33/02 A2992 RMK A01 T03280018  RH  014%=      5-min Rain = 0
KCL1 142011Z 24001KT 33/02 A2992 RMK A01 T03260017  RH  014%=      5-min Rain = 0
KCL1 142012Z 00002KT 33/02 A2992 RMK A01 T03250018  RH  014%=      5-min Rain = 0
KCL1 142013Z 36003KT 32/02 A2992 RMK A01 T03240018  RH  014%=      5-min Rain = 0
KCL1 142014Z 11004KT 32/02 A2992 RMK A01 T03240020  RH  015%=      5-min Rain = 0
KCL1 142015Z 09004KT 32/02 A2992 RMK A01 T03240019  RH  014%=      5-min Rain = 0
KCL1 142016Z 08006KT 32/02 A2992 RMK A01 T03230019  RH  014%=      5-min Rain = 0
KCL1 142017Z 11006KT 32/02 A2992 RMK A01 T03230019  RH  014%=      5-min Rain = 0
KCL1 142018Z 12005KT 32/02 A2992 RMK A01 T03210020  RH  015%=      5-min Rain = 0
KCL1 142019Z 13004KT 32/02 A2992 RMK A01 T03220020  RH  015%=      5-min Rain = 0
KCL1 142020Z 13002KT 32/02 A2992 RMK A01 T03230019  RH  015%=      5-min Rain = 0
KCL1 142021Z 09003KT 32/02 A2992 RMK A01 T03220019  RH  015%=      5-min Rain = 0
KCL1 142022Z 06003KT 32/02 A2992 RMK A01 T03210019  RH  015%=      5-min Rain = 0
KCL1 142023Z 06002KT 32/02 A2992 RMK A01 T03200018  RH  015%=      5-min Rain = 0
KCL1 142024Z 04000KT 32/02 A2992 RMK A01 T03190018  RH  015%=      5-min Rain = 0
KCL1 142025Z 04001KT 32/02 A2991 RMK A01 T03190021  RH  015%=      5-min Rain = 0
KCL1 142026Z 03003KT 32/02 A2991 RMK A01 T03190023  RH  015%=      5-min Rain = 0
KCL1 142027Z 02003KT 32/02 A2991 RMK A01 T03200024  RH  015%=      5-min Rain = 0
KCL1 142028Z 06004KT 32/02 A2991 RMK A01 T03200024  RH  015%=      5-min Rain = 0
KCL1 142029Z 08004KT 32/03 A2991 RMK A01 T03190025  RH  015%=      5-min Rain = 0
KCL1 142030Z 10003KT 32/03 A2992 RMK A01 T03180028  RH  016%=      5-min Rain = 0
KCL1 142031Z 14003KT 32/03 A2992 RMK A01 T03180028  RH  016%=      5-min Rain = 0
KCL1 142032Z 18004KT 32/03 A2992 RMK A01 T03180028  RH  016%=      5-min Rain = 0
KCL1 142033Z 17004KT 32/03 A2992 RMK A01 T03180025  RH  016%=      5-min Rain = 0
KCL1 142034Z 18005KT 32/02 A2992 RMK A01 T03180022  RH  015%=      5-min Rain = 0
KCL1 142035Z 19005KT 32/02 A2992 RMK A01 T03190021  RH  015%=      5-min Rain = 0
KCL1 142036Z 23007KT 32/02 A2992 RMK A01 T03190021  RH  015%=      5-min Rain = 0
KCL1 142037Z 23014G20KT 32/02 A2992 RMK A01 T03190020  RH  015%=      5-min Rain = 0
KCL1 142038Z 25018G23KT 32/02 A2991 RMK A01 T03190020  RH  015%=      5-min Rain = 0
KCL1 142039Z 25013G19KT 32/03 A2992 RMK A01 T03180032  RH  016%=      5-min Rain = 0
KCL1 142040Z 23008KT 31/05 A2992 RMK A01 T03140048  RH  019%=      5-min Rain = 0
KCL1 142041Z 22011G17KT 31/06 A2993 RMK A01 T03090057  RH  021%=      5-min Rain = 0
KCL1 142042Z 19013G19KT 30/06 A2993 RMK A01 T03020062  RH  022%=      5-min Rain = 0
KCL1 142043Z 17012G19KT 30/07 A2992 RMK A01 T02970065  RH  023%=      5-min Rain = 0
KCL1 142044Z 18017KT 29/07 A2992 RMK A01 T02890074  RH  026%=      5-min Rain = 0
KCL1 142045Z 19015G20KT 29/06 A2992 RMK A01 T02860064  RH  025%=      5-min Rain = 0
KCL1 142046Z 21019G24KT 29/08 A2993 RMK A01 T02850077  RH  027%=      5-min Rain = 0
KCL1 142047Z 18016G21KT 28/09 A2993 RMK A01 T02780087  RH  030%=      5-min Rain = 0
KCL1 142048Z 12008G14KT 28/05 A2992 RMK A01 T02750051  RH  024%=      5-min Rain = 0
KCL1 142049Z 07003KT 28/05 A2992 RMK A01 T02820054  RH  024%=      5-min Rain = 0
KCL1 142050Z 36002KT 29/04 A2991 RMK A01 T02880044  RH  021%=      5-min Rain = 0
KCL1 142051Z 35003KT 29/05 A2991 RMK A01 T02930046  RH  021%=      5-min Rain = 0
KCL1 142052Z 36003KT 30/05 A2991 RMK A01 T02980050  RH  021%=      5-min Rain = 0
KCL1 142053Z 26000KT 30/06 A2991 RMK A01 T03020062  RH  022%=      5-min Rain = 0
KCL1 142054Z 19003KT 31/05 A2991 RMK A01 T03060051  RH  020%=      5-min Rain = 0
KCL1 142055Z 19003KT 31/06 A2991 RMK A01 T03090056  RH  020%=      5-min Rain = 0
KCL1 142056Z 09002KT 31/05 A299 RMK A01 T03100046  RH  019%=      5-min Rain = 0
KCL1 142057Z 09003KT 31/04 A299 RMK A01 T03110036  RH  017%=      5-min Rain = 0
KCL1 142058Z 11004KT 31/04 A299 RMK A01 T03120044  RH  018%=      5-min Rain = 0
KCL1 142059Z 11004KT 31/04 A299 RMK A01 T03130044  RH  018%=      5-min Rain = 0
KCL1 142100Z 10008KT 31/08 A299 RMK A01 T03140081  RH  024%=      5-min Rain = 0
KCL1 142101Z 09007KT 31/09 A299 RMK A01 T03130086  RH  024%=      5-min Rain = 0
KCL1 142102Z 09005KT 31/07 A299 RMK A01 T03110068  RH  022%=      5-min Rain = 0
KCL1 142103Z 07001KT 31/07 A2989 RMK A01 T03110067  RH  022%=      5-min Rain = 0
KCL1 142104Z 12004G9KT 31/07 A2989 RMK A01 T03130074  RH  023%=      5-min Rain = 0
KCL1 142105Z 17008KT 32/07 A2989 RMK A01 T03160071  RH  022%=      5-min Rain = 0
KCL1 142106Z 16006KT 32/06 A2989 RMK A01 T03180060  RH  020%=      5-min Rain = 0
KCL1 142107Z 13001KT 32/05 A2989 RMK A01 T03170048  RH  018%=      5-min Rain = 0
KCL1 142108Z 29001KT 32/04 A2989 RMK A01 T03170037  RH  017%=      5-min Rain = 0
KCL1 142109Z 17005KT 32/05 A2989 RMK A01 T03160050  RH  019%=      5-min Rain = 0
KCL1 142110Z 18003KT 32/05 A2989 RMK A01 T03160050  RH  019%=      5-min Rain = 0
KCL1 142111Z 10005KT 32/06 A2988 RMK A01 T03170060  RH  020%=      5-min Rain = 0
KCL1 142112Z 12007KT 32/07 A2988 RMK A01 T03190065  RH  020%=      5-min Rain = 0
KCL1 142113Z 18008KT 32/07 A2988 RMK A01 T03220068  RH  021%=      5-min Rain = 0
KCL1 142114Z 22007KT 33/06 A2988 RMK A01 T03250059  RH  019%=      5-min Rain = 0
KCL1 142115Z 23006KT 33/05 A2988 RMK A01 T03280050  RH  018%=      5-min Rain = 0
KCL1 142116Z 24003KT 33/04 A2988 RMK A01 T03280044  RH  017%=      5-min Rain = 0
KCL1 142117Z 23002KT 33/05 A2988 RMK A01 T03270045  RH  017%=      5-min Rain = 0
KCL1 142118Z 18003KT 33/05 A2988 RMK A01 T03280045  RH  017%=      5-min Rain = 0
KCL1 142119Z 18006KT 33/05 A2987 RMK A01 T03290052  RH  018%=      5-min Rain = 0
KCL1 142120Z 17005KT 33/05 A2987 RMK A01 T03300050  RH  017%=      5-min Rain = 0
KCL1 142121Z 21006KT 33/05 A2987 RMK A01 T03320054  RH  018%=      5-min Rain = 0
KCL1 142122Z 22007KT 34/04 A2987 RMK A01 T03350043  RH  016%=      5-min Rain = 0
KCL1 142123Z 25007KT 34/04 A2987 RMK A01 T03350040  RH  016%=      5-min Rain = 0
KCL1 142124Z 25009KT 34/04 A2987 RMK A01 T03360040  RH  016%=      5-min Rain = 0
KCL1 142125Z 22009KT 34/04 A2987 RMK A01 T03350035  RH  015%=      5-min Rain = 0
KCL1 142126Z 22008KT 34/04 A2987 RMK A01 T03350035  RH  015%=      5-min Rain = 0
KCL1 142127Z 24005KT 33/03 A2987 RMK A01 T03340033  RH  015%=      5-min Rain = 0
KCL1 142128Z 24006G11KT 33/04 A2987 RMK A01 T03330036  RH  015%=      5-min Rain = 0
KCL1 142129Z 26010KT 33/04 A2987 RMK A01 T03340039  RH  016%=      5-min Rain = 0
KCL1 142130Z 26010KT 34/04 A2987 RMK A01 T03360038  RH  015%=      5-min Rain = 0
KCL1 142131Z 26011KT 34/04 A2987 RMK A01 T03360039  RH  016%=      5-min Rain = 0
KCL1 142132Z 25010KT 34/04 A2987 RMK A01 T03360039  RH  016%=      5-min Rain = 0
KCL1 142133Z 24011G16KT 34/04 A2987 RMK A01 T03370040  RH  016%=      5-min Rain = 0
KCL1 142134Z 21011KT 34/04 A2987 RMK A01 T03390037  RH  015%=      5-min Rain = 0
KCL1 142135Z 24007KT 34/04 A2987 RMK A01 T03390038  RH  015%=      5-min Rain = 0
KCL1 142136Z 24005G11KT 34/04 A2987 RMK A01 T03390037  RH  015%=      5-min Rain = 0
KCL1 142137Z 21007KT 34/03 A2987 RMK A01 T03400033  RH  015%=      5-min Rain = 0
KCL1 142138Z 23010KT 34/03 A2987 RMK A01 T03390032  RH  015%=      5-min Rain = 0
KCL1 142139Z 25009KT 34/03 A2986 RMK A01 T03390031  RH  014%=      5-min Rain = 0
KCL1 142140Z 26013KT 34/03 A2986 RMK A01 T03400030  RH  014%=      5-min Rain = 0
KCL1 142141Z 25009KT 34/03 A2986 RMK A01 T03390026  RH  014%=      5-min Rain = 0
KCL1 142142Z 23007G12KT 34/03 A2986 RMK A01 T03370030  RH  014%=      5-min Rain = 0
KCL1 142143Z 24011KT 34/03 A2986 RMK A01 T03390031  RH  014%=      5-min Rain = 0
KCL1 142144Z 23011G16KT 34/03 A2986 RMK A01 T03410029  RH  014%=      5-min Rain = 0
KCL1 142145Z 22013KT 34/03 A2986 RMK A01 T03390028  RH  014%=      5-min Rain = 0
KCL1 142146Z 22011KT 34/03 A2986 RMK A01 T03370028  RH  014%=      5-min Rain = 0
KCL1 142147Z 21011KT 34/03 A2986 RMK A01 T03360030  RH  015%=      5-min Rain = 0
KCL1 142148Z 20009KT 34/03 A2986 RMK A01 T03350028  RH  014%=      5-min Rain = 0
KCL1 142149Z 21007KT 33/03 A2985 RMK A01 T03330027  RH  015%=      5-min Rain = 0
KCL1 142150Z 22006KT 33/03 A2985 RMK A01 T03310026  RH  015%=      5-min Rain = 0
KCL1 142151Z 23006KT 33/03 A2985 RMK A01 T03320028  RH  015%=      5-min Rain = 0
KCL1 142152Z 22006KT 33/03 A2985 RMK A01 T03320026  RH  015%=      5-min Rain = 0
KCL1 142153Z 22003KT 33/03 A2985 RMK A01 T03330028  RH  015%=      5-min Rain = 0
KCL1 142154Z 22004KT 33/03 A2985 RMK A01 T03340027  RH  014%=      5-min Rain = 0
KCL1 142155Z 21009KT 34/03 A2985 RMK A01 T03370029  RH  014%=      5-min Rain = 0
KCL1 142156Z 21010KT 34/03 A2985 RMK A01 T03380027  RH  014%=      5-min Rain = 0
KCL1 142157Z 21010KT 34/03 A2985 RMK A01 T03380026  RH  014%=      5-min Rain = 0
KCL1 142158Z 21012KT 34/03 A2985 RMK A01 T03380027  RH  014%=      5-min Rain = 0
KCL1 142159Z 22012KT 34/03 A2985 RMK A01 T03380026  RH  014%=      5-min Rain = 0
KCL1 142200Z 21011KT 34/03 A2985 RMK A01 T03390026  RH  014%=      5-min Rain = 0
KCL1 142201Z 20013KT 34/03 A2985 RMK A01 T03390027  RH  014%=      5-min Rain = 0
KCL1 142202Z 21012KT 34/03 A2985 RMK A01 T03400026  RH  014%=      5-min Rain = 0
KCL1 142203Z 21008G13KT 34/02 A2984 RMK A01 T03390024  RH  014%=      5-min Rain = 0
KCL1 142204Z 21011KT 34/03 A2985 RMK A01 T03380027  RH  014%=      5-min Rain = 0
KCL1 142205Z 22009G14KT 34/03 A2985 RMK A01 T03400025  RH  014%=      5-min Rain = 0
KCL1 142206Z 23006KT 34/03 A2985 RMK A01 T03400026  RH  014%=      5-min Rain = 0
KCL1 142207Z 22009KT 34/03 A2985 RMK A01 T03410026  RH  014%=      5-min Rain = 0
KCL1 142208Z 22006KT 34/03 A2985 RMK A01 T03420026  RH  014%=      5-min Rain = 0
KCL1 142209Z 19008KT 34/03 A2985 RMK A01 T03420028  RH  014%=      5-min Rain = 0
KCL1 142210Z 18006KT 34/03 A2984 RMK A01 T03420031  RH  014%=      5-min Rain = 0
KCL1 142211Z 25006KT 34/03 A2984 RMK A01 T03430034  RH  014%=      5-min Rain = 0
KCL1 142212Z 23006KT 35/03 A2984 RMK A01 T03460029  RH  014%=      5-min Rain = 0
KCL1 142213Z 21008KT 35/03 A2984 RMK A01 T03460026  RH  013%=      5-min Rain = 0
KCL1 142214Z 22007KT 34/02 A2984 RMK A01 T03420024  RH  013%=      5-min Rain = 0
KCL1 142215Z 26008G14KT 34/03 A2984 RMK A01 T03410027  RH  014%=      5-min Rain = 0
KCL1 142216Z 26012KT 34/03 A2984 RMK A01 T03430026  RH  014%=      5-min Rain = 0
KCL1 142217Z 27008KT 34/02 A2984 RMK A01 T03420023  RH  013%=      5-min Rain = 0
KCL1 142218Z 28010KT 34/03 A2984 RMK A01 T03410026  RH  014%=      5-min Rain = 0
KCL1 142219Z 27010KT 34/03 A2984 RMK A01 T03430025  RH  014%=      5-min Rain = 0
KCL1 142220Z 26012KT 34/03 A2985 RMK A01 T03440025  RH  013%=      5-min Rain = 0
KCL1 142221Z 26012KT 34/02 A2985 RMK A01 T03440023  RH  013%=      5-min Rain = 0
KCL1 142222Z 27009KT 34/02 A2985 RMK A01 T03420024  RH  014%=      5-min Rain = 0
KCL1 142223Z 26008KT 34/02 A2985 RMK A01 T03400024  RH  014%=      5-min Rain = 0
KCL1 142224Z 27008KT 34/02 A2985 RMK A01 T03370021  RH  014%=      5-min Rain = 0
KCL1 142225Z 26012KT 34/02 A2985 RMK A01 T03350022  RH  014%=      5-min Rain = 0
KCL1 142226Z 26011KT 33/02 A2985 RMK A01 T03340022  RH  014%=      5-min Rain = 0
KCL1 142227Z 25009KT 33/02 A2985 RMK A01 T03320020  RH  014%=      5-min Rain = 0
KCL1 142228Z 24010KT 33/02 A2985 RMK A01 T03310022  RH  014%=      5-min Rain = 0
KCL1 142229Z 21008KT 33/02 A2985 RMK A01 T03320022  RH  014%=      5-min Rain = 0
KCL1 142230Z 23006KT 33/02 A2985 RMK A01 T03310023  RH  014%=      5-min Rain = 0
KCL1 142231Z 22007KT 33/02 A2985 RMK A01 T03300023  RH  014%=      5-min Rain = 0
KCL1 142232Z 22007KT 33/02 A2985 RMK A01 T03300022  RH  014%=      5-min Rain = 0
KCL1 142233Z 21006KT 33/02 A2986 RMK A01 T03290023  RH  014%=      5-min Rain = 0
KCL1 142234Z 21008KT 33/02 A2986 RMK A01 T03300023  RH  014%=      5-min Rain = 0
KCL1 142235Z 23009KT 33/02 A2986 RMK A01 T03280022  RH  014%=      5-min Rain = 0
KCL1 142236Z 22007G13KT 33/02 A2986 RMK A01 T03270021  RH  014%=      5-min Rain = 0
KCL1 142237Z 21010KT 33/02 A2986 RMK A01 T03260021  RH  014%=      5-min Rain = 0
KCL1 142238Z 21009KT 33/02 A2986 RMK A01 T03250021  RH  015%=      5-min Rain = 0
KCL1 142239Z 21008KT 33/02 A2986 RMK A01 T03250022  RH  015%=      5-min Rain = 0
KCL1 142240Z 22008KT 33/02 A2986 RMK A01 T03250022  RH  015%=      5-min Rain = 0
KCL1 142241Z 26006KT 33/02 A2986 RMK A01 T03250022  RH  015%=      5-min Rain = 0
KCL1 142242Z 25007KT 33/02 A2986 RMK A01 T03250022  RH  015%=      5-min Rain = 0
KCL1 142243Z 22005KT 32/02 A2986 RMK A01 T03240021  RH  015%=      5-min Rain = 0
KCL1 142244Z 24005KT 32/02 A2986 RMK A01 T03240022  RH  015%=      5-min Rain = 0
KCL1 142245Z 23004KT 32/02 A2986 RMK A01 T03230022  RH  015%=      5-min Rain = 0
KCL1 142246Z 24008KT 32/02 A2986 RMK A01 T03230023  RH  015%=      5-min Rain = 0
KCL1 142247Z 25009KT 32/02 A2986 RMK A01 T03230023  RH  015%=      5-min Rain = 0
KCL1 142248Z 27008KT 32/02 A2986 RMK A01 T03220021  RH  015%=      5-min Rain = 0
KCL1 142249Z 26007KT 32/02 A2986 RMK A01 T03210022  RH  015%=      5-min Rain = 0
KCL1 142250Z 25004KT 32/02 A2986 RMK A01 T03210023  RH  015%=      5-min Rain = 0
KCL1 142251Z 25005KT 32/02 A2986 RMK A01 T03210023  RH  015%=      5-min Rain = 0
KCL1 142252Z 23006KT 32/02 A2987 RMK A01 T03210022  RH  015%=      5-min Rain = 0
KCL1 142253Z 23004KT 32/02 A2987 RMK A01 T03200022  RH  015%=      5-min Rain = 0
KCL1 142254Z 20006KT 32/02 A2987 RMK A01 T03200022  RH  015%=      5-min Rain = 0
KCL1 142255Z 21007KT 32/02 A2987 RMK A01 T03200022  RH  015%=      5-min Rain = 0
KCL1 142256Z 23007KT 32/02 A2987 RMK A01 T03200023  RH  015%=      5-min Rain = 0
KCL1 142257Z 23014G21KT 32/02 A2987 RMK A01 T03200024  RH  015%=      5-min Rain = 0
KCL1 142258Z 20018KT 32/02 A2988 RMK A01 T03190024  RH  015%=      5-min Rain = 0
KCL1 142259Z 21012G18KT 31/03 A2988 RMK A01 T03140025  RH  016%=      5-min Rain = 0
KCL1 142300Z 21015G20KT 31/03 A2988 RMK A01 T03120027  RH  016%=      5-min Rain = 0
KCL1 142301Z 21015KT 31/03 A2988 RMK A01 T03080030  RH  017%=      5-min Rain = 0
KCL1 142302Z 19013KT 31/03 A2989 RMK A01 T03050031  RH  017%=      5-min Rain = 0
KCL1 142303Z 16020G30KT 30/05 A2989 RMK A01 T03030048  RH  020%=      5-min Rain = 0
KCL1 142304Z 16019G25KT 29/08 A2989 RMK A01 T02930078  RH  026%=      5-min Rain = 0
KCL1 142305Z 16016G24KT 28/09 A2989 RMK A01 T02810086  RH  030%=      5-min Rain = 0
KCL1 142306Z 16013KT 28/09 A2989 RMK A01 T02750088  RH  031%=      5-min Rain = 0
KCL1 142307Z 17016G25KT 27/09 A2989 RMK A01 T02710091  RH  032%=      5-min Rain = 0
KCL1 142308Z 17017KT 27/09 A2989 RMK A01 T02700088  RH  032%=      5-min Rain = 0
KCL1 142309Z 17014KT 27/09 A2989 RMK A01 T02690090  RH  032%=      5-min Rain = 0
KCL1 142310Z 17015KT 27/09 A2989 RMK A01 T02680092  RH  033%=      5-min Rain = 0
KCL1 142311Z 18010G15KT 27/09 A2989 RMK A01 T02680092  RH  033%=      5-min Rain = 0
KCL1 142312Z 18008KT 27/09 A2989 RMK A01 T02680090  RH  033%=      5-min Rain = 0
KCL1 142313Z 18009KT 27/09 A2988 RMK A01 T02690088  RH  032%=      5-min Rain = 0
KCL1 142314Z 18009KT 27/09 A2988 RMK A01 T02700086  RH  031%=      5-min Rain = 0
KCL1 142315Z 18007KT 27/09 A2988 RMK A01 T02720086  RH  031%=      5-min Rain = 0
KCL1 142316Z 17009KT 27/09 A2988 RMK A01 T02720088  RH  031%=      5-min Rain = 0
KCL1 142317Z 15010KT 27/09 A2988 RMK A01 T02720092  RH  032%=      5-min Rain = 0
KCL1 142318Z 16011KT 27/09 A2988 RMK A01 T02700093  RH  033%=      5-min Rain = 0
KCL1 142319Z 16010KT 27/09 A2988 RMK A01 T02690092  RH  033%=      5-min Rain = 0
KCL1 142320Z 14007KT 27/09 A2987 RMK A01 T02670092  RH  033%=      5-min Rain = 0
KCL1 142321Z 14007KT 27/09 A2987 RMK A01 T02650092  RH  034%=      5-min Rain = 0
KCL1 142322Z 15009KT 27/09 A2987 RMK A01 T02650092  RH  034%=      5-min Rain = 0
KCL1 142323Z 16009KT 27/09 A2987 RMK A01 T02650092  RH  033%=      5-min Rain = 0
KCL1 142324Z 14010KT 27/09 A2987 RMK A01 T02660091  RH  033%=      5-min Rain = 0
KCL1 142325Z 15011KT 27/09 A2987 RMK A01 T02660088  RH  032%=      5-min Rain = 0
KCL1 142326Z 15007KT 27/09 A2987 RMK A01 T02670089  RH  032%=      5-min Rain = 0
KCL1 142327Z 15010KT 27/09 A2987 RMK A01 T02670090  RH  033%=      5-min Rain = 0
KCL1 142328Z 14011KT 27/09 A2987 RMK A01 T02670086  RH  032%=      5-min Rain = 0
KCL1 142329Z 15011KT 27/09 A2987 RMK A01 T02670085  RH  032%=      5-min Rain = 0
KCL1 142330Z 16010KT 27/08 A2987 RMK A01 T02670083  RH  031%=      5-min Rain = 0
KCL1 142331Z 16010KT 27/08 A2986 RMK A01 T02670082  RH  031%=      5-min Rain = 0
KCL1 142332Z 15009KT 27/08 A2986 RMK A01 T02670081  RH  031%=      5-min Rain = 0
KCL1 142333Z 15008KT 27/08 A2986 RMK A01 T02670080  RH  031%=      5-min Rain = 0
KCL1 142334Z 16008KT 27/08 A2986 RMK A01 T02670080  RH  031%=      5-min Rain = 0
KCL1 142335Z 15008KT 27/08 A2986 RMK A01 T02670081  RH  031%=      5-min Rain = 0
KCL1 142336Z 15011KT 27/08 A2985 RMK A01 T02670080  RH  031%=      5-min Rain = 0
KCL1 142337Z 15009KT 27/08 A2985 RMK A01 T02660080  RH  031%=      5-min Rain = 0
KCL1 142338Z 14011KT 27/08 A2985 RMK A01 T02660080  RH  031%=      5-min Rain = 0
KCL1 142339Z 15010KT 27/08 A2985 RMK A01 T02650080  RH  031%=      5-min Rain = 0
KCL1 142340Z 15009KT 27/08 A2985 RMK A01 T02650081  RH  031%=      5-min Rain = 0
KCL1 142341Z 14008KT 27/08 A2985 RMK A01 T02650082  RH  031%=      5-min Rain = 0
KCL1 142342Z 12009KT 27/08 A2985 RMK A01 T02650084  RH  032%=      5-min Rain = 0
KCL1 142343Z 12008KT 27/09 A2985 RMK A01 T02650085  RH  032%=      5-min Rain = 0
KCL1 142344Z 11010KT 27/09 A2985 RMK A01 T02650087  RH  032%=      5-min Rain = 0
KCL1 142345Z 11010KT 26/09 A2985 RMK A01 T02640092  RH  034%=      5-min Rain = 0
KCL1 142346Z 11010KT 26/09 A2985 RMK A01 T02630094  RH  034%=      5-min Rain = 0
KCL1 142347Z 10010KT 26/09 A2984 RMK A01 T02620094  RH  035%=      5-min Rain = 0
KCL1 142348Z 10011KT 26/09 A2984 RMK A01 T02620094  RH  035%=      5-min Rain = 0
KCL1 142349Z 10011KT 26/09 A2984 RMK A01 T02620092  RH  034%=      5-min Rain = 0
KCL1 142350Z 10009KT 26/09 A2984 RMK A01 T02630093  RH  034%=      5-min Rain = 0
KCL1 142351Z 10008KT 26/09 A2984 RMK A01 T02640094  RH  034%=      5-min Rain = 0
KCL1 142352Z 10011KT 27/09 A2984 RMK A01 T02660094  RH  034%=      5-min Rain = 0
KCL1 142353Z 09013KT 27/09 A2984 RMK A01 T02670092  RH  033%=      5-min Rain = 0
KCL1 142354Z 09011KT 27/09 A2984 RMK A01 T02660092  RH  033%=      5-min Rain = 0
KCL1 142355Z 09011KT 27/09 A2984 RMK A01 T02660094  RH  034%=      5-min Rain = 0
KCL1 142356Z 09011KT 27/10 A2984 RMK A01 T02670095  RH  034%=      5-min Rain = 0
KCL1 142357Z 09012KT 27/09 A2984 RMK A01 T02690094  RH  033%=      5-min Rain = 0
KCL1 142358Z 09011KT 27/09 A2984 RMK A01 T02670093  RH  033%=      5-min Rain = 0
KCL1 142359Z 09012KT 27/09 A2984 RMK A01 T02660093  RH  034%=      5-min Rain = 0
KCL1 150000Z 09013KT 27/09 A2984 RMK A01 T02660093  RH  034%=      5-min Rain = 0
KCL1 150001Z 10012KT 27/09 A2984 RMK A01 T02660092  RH  033%=      5-min Rain = 0
KCL1 150002Z 10011KT 27/09 A2984 RMK A01 T02660091  RH  033%=      5-min Rain = 0
KCL1 150003Z 09011KT 27/09 A2985 RMK A01 T02660088  RH  032%=      5-min Rain = 0
KCL1 150004Z 09010KT 27/09 A2985 RMK A01 T02670088  RH  032%=      5-min Rain = 0
KCL1 150005Z 10010KT 27/09 A2985 RMK A01 T02680088  RH  032%=      5-min Rain = 0
KCL1 150006Z 09011KT 27/09 A2985 RMK A01 T02690089  RH  032%=      5-min Rain = 0
KCL1 150007Z 09011G16KT 27/09 A2985 RMK A01 T02710092  RH  032%=      5-min Rain = 0
KCL1 150008Z 09013KT 27/09 A2985 RMK A01 T02720094  RH  033%=      5-min Rain = 0
KCL1 150009Z 10014KT 27/10 A2985 RMK A01 T02700096  RH  034%=      5-min Rain = 0
KCL1 150010Z 10017KT 27/10 A2985 RMK A01 T02670102  RH  035%=      5-min Rain = 0
KCL1 150011Z 10015KT 26/11 A2985 RMK A01 T02630107  RH  038%=      5-min Rain = 0
KCL1 150012Z 09014KT 26/11 A2985 RMK A01 T02600107  RH  038%=      5-min Rain = 0
KCL1 150013Z 10012KT 26/11 A2986 RMK A01 T02580108  RH  039%=      5-min Rain = 0
KCL1 150014Z 10010KT 26/11 A2986 RMK A01 T02570107  RH  039%=      5-min Rain = 0
KCL1 150015Z 11008KT 26/11 A2986 RMK A01 T02570108  RH  039%=      5-min Rain = 0
KCL1 150016Z 12009KT 26/10 A2985 RMK A01 T02570104  RH  038%=      5-min Rain = 0
KCL1 150017Z 10010KT 26/10 A2986 RMK A01 T02580098  RH  036%=      5-min Rain = 0
KCL1 150018Z 11012KT 26/09 A2986 RMK A01 T02600090  RH  034%=      5-min Rain = 0
KCL1 150019Z 12011KT 26/09 A2986 RMK A01 T02620088  RH  033%=      5-min Rain = 0
KCL1 150020Z 12012KT 26/09 A2986 RMK A01 T02640085  RH  032%=      5-min Rain = 0
KCL1 150021Z 10008KT 27/08 A2986 RMK A01 T02650082  RH  031%=      5-min Rain = 0
KCL1 150022Z 10012KT 27/08 A2986 RMK A01 T02670084  RH  031%=      5-min Rain = 0
KCL1 150023Z 10013KT 27/09 A2986 RMK A01 T02680089  RH  032%=      5-min Rain = 0
KCL1 150024Z 10015KT 27/10 A2987 RMK A01 T02650095  RH  034%=      5-min Rain = 0
KCL1 150025Z 10013KT 26/10 A2987 RMK A01 T02620098  RH  036%=      5-min Rain = 0
KCL1 150026Z 10017KT 26/10 A2987 RMK A01 T02610099  RH  036%=      5-min Rain = 0
KCL1 150027Z 10017KT 26/10 A2987 RMK A01 T02590099  RH  037%=      5-min Rain = 0
KCL1 150028Z 10018KT 26/10 A2987 RMK A01 T02570099  RH  037%=      5-min Rain = 0
KCL1 150029Z 10015KT 26/10 A2987 RMK A01 T02560100  RH  037%=      5-min Rain = 0
KCL1 150030Z 11013KT 26/10 A2987 RMK A01 T02550100  RH  038%=      5-min Rain = 0
KCL1 150031Z 11014KT 26/10 A2987 RMK A01 T02560100  RH  037%=      5-min Rain = 0
KCL1 150032Z 11017KT 26/10 A2987 RMK A01 T02560098  RH  037%=      5-min Rain = 0
KCL1 150033Z 11014KT 26/10 A2987 RMK A01 T02550099  RH  037%=      5-min Rain = 0
KCL1 150034Z 11011KT 25/10 A2987 RMK A01 T02540100  RH  038%=      5-min Rain = 0
KCL1 150035Z 11011KT 25/10 A2987 RMK A01 T02540100  RH  038%=      5-min Rain = 0
KCL1 150036Z 11013KT 25/10 A2987 RMK A01 T02540098  RH  037%=      5-min Rain = 0
KCL1 150037Z 11011KT 26/10 A2987 RMK A01 T02550097  RH  037%=      5-min Rain = 0
KCL1 150038Z 11012KT 26/10 A2987 RMK A01 T02560098  RH  037%=      5-min Rain = 0
KCL1 150039Z 12015KT 26/10 A2988 RMK A01 T02570098  RH  037%=      5-min Rain = 0
KCL1 150040Z 12016KT 26/10 A2988 RMK A01 T02560096  RH  036%=      5-min Rain = 0
KCL1 150041Z 11017KT 26/10 A2988 RMK A01 T02570096  RH  036%=      5-min Rain = 0
KCL1 150042Z 12013KT 26/10 A2988 RMK A01 T02570097  RH  036%=      5-min Rain = 0
KCL1 150043Z 11015G20KT 26/10 A2988 RMK A01 T02560098  RH  037%=      5-min Rain = 0
KCL1 150044Z 11017KT 26/10 A2988 RMK A01 T02560098  RH  037%=      5-min Rain = 0
KCL1 150045Z 11015G20KT 26/10 A2989 RMK A01 T02550098  RH  037%=      5-min Rain = 0
KCL1 150046Z 11013KT 25/10 A2989 RMK A01 T02540099  RH  037%=      5-min Rain = 0
KCL1 150047Z 12015KT 25/10 A2989 RMK A01 T02540099  RH  038%=      5-min Rain = 0
KCL1 150048Z 11012KT 25/10 A2989 RMK A01 T02540099  RH  038%=      5-min Rain = 0
KCL1 150049Z 12015KT 25/10 A2989 RMK A01 T02530097  RH  037%=      5-min Rain = 0
KCL1 150050Z 11017KT 25/10 A2989 RMK A01 T02530095  RH  037%=      5-min Rain = 0
KCL1 150051Z 12017KT 25/09 A2989 RMK A01 T02520094  RH  037%=      5-min Rain = 0
KCL1 150052Z 12017KT 25/09 A2989 RMK A01 T02530094  RH  037%=      5-min Rain = 0
KCL1 150053Z 12017KT 25/09 A2989 RMK A01 T02530094  RH  037%=      5-min Rain = 0
KCL1 150054Z 13015KT 25/09 A2989 RMK A01 T02530094  RH  037%=      5-min Rain = 0
KCL1 150055Z 13014KT 25/10 A2989 RMK A01 T02530095  RH  037%=      5-min Rain = 0
KCL1 150056Z 13016KT 25/10 A2989 RMK A01 T02530095  RH  037%=      5-min Rain = 0
KCL1 150057Z 13014KT 25/10 A299 RMK A01 T02530095  RH  037%=      5-min Rain = 0
KCL1 150058Z 13012KT 25/10 A299 RMK A01 T02530095  RH  037%=      5-min Rain = 0
KCL1 150059Z 13012G18KT 25/10 A299 RMK A01 T02530095  RH  037%=      5-min Rain = 0
KCL1 150100Z 14012KT 25/10 A299 RMK A01 T02530095  RH  037%=      5-min Rain = 0
KCL1 150101Z 14014KT 25/09 A299 RMK A01 T02530094  RH  037%=      5-min Rain = 0
KCL1 150102Z 13018KT 25/09 A299 RMK A01 T02530091  RH  036%=      5-min Rain = 0
KCL1 150103Z 14015G21KT 25/09 A299 RMK A01 T02530089  RH  035%=      5-min Rain = 0
KCL1 150104Z 14018G23KT 25/09 A299 RMK A01 T02540089  RH  035%=      5-min Rain = 0
KCL1 150105Z 14019KT 25/09 A299 RMK A01 T02530089  RH  035%=      5-min Rain = 0
KCL1 150106Z 14017KT 25/09 A2991 RMK A01 T02510089  RH  036%=      5-min Rain = 0
KCL1 150107Z 14016KT 25/09 A2991 RMK A01 T02500089  RH  036%=      5-min Rain = 0
KCL1 150108Z 14017G25KT 25/09 A299 RMK A01 T02500090  RH  036%=      5-min Rain = 0
KCL1 150109Z 14020G26KT 25/09 A2991 RMK A01 T02480091  RH  037%=      5-min Rain = 0
KCL1 150110Z 14020G27KT 25/09 A2991 RMK A01 T02460094  RH  038%=      5-min Rain = 0
KCL1 150111Z 13020G25KT 24/10 A2991 RMK A01 T02440096  RH  039%=      5-min Rain = 0
KCL1 150112Z 13019G24KT 24/10 A2991 RMK A01 T02410096  RH  040%=      5-min Rain = 0
KCL1 150113Z 12023G28KT 24/10 A2991 RMK A01 T02400099  RH  041%=      5-min Rain = 0
KCL1 150114Z 12024KT 24/10 A2991 RMK A01 T02370101  RH  042%=      5-min Rain = 0
KCL1 150115Z 12024G30KT 24/10 A2991 RMK A01 T02360103  RH  043%=      5-min Rain = 0
KCL1 150116Z 13025G30KT 23/10 A2991 RMK A01 T02330104  RH  044%=      5-min Rain = 0
KCL1 150117Z 13021KT 23/11 A2991 RMK A01 T02320105  RH  044%=      5-min Rain = 0
KCL1 150118Z 13020G26KT 23/11 A2991 RMK A01 T02320105  RH  045%=      5-min Rain = 0
KCL1 150119Z 13020KT 23/11 A2991 RMK A01 T02310106  RH  045%=      5-min Rain = 0
KCL1 150120Z 13019KT 23/11 A2991 RMK A01 T02300106  RH  045%=      5-min Rain = 0
KCL1 150121Z 13018G24KT 23/11 A2991 RMK A01 T02300107  RH  046%=      5-min Rain = 0
KCL1 150122Z 13016KT 23/11 A2991 RMK A01 T02290107  RH  046%=      5-min Rain = 0
KCL1 150123Z 13018KT 23/11 A2991 RMK A01 T02290107  RH  046%=      5-min Rain = 0
KCL1 150124Z 13016G21KT 23/11 A2991 RMK A01 T02290108  RH  046%=      5-min Rain = 0
KCL1 150125Z 13014KT 23/11 A2991 RMK A01 T02280108  RH  047%=      5-min Rain = 0
KCL1 150126Z 13016KT 23/11 A2991 RMK A01 T02270108  RH  047%=      5-min Rain = 0
KCL1 150127Z 13016KT 23/11 A2991 RMK A01 T02270109  RH  047%=      5-min Rain = 0
KCL1 150128Z 13017G22KT 23/11 A2991 RMK A01 T02260109  RH  048%=      5-min Rain = 0
KCL1 150129Z 14016KT 23/11 A2991 RMK A01 T02260110  RH  048%=      5-min Rain = 0
KCL1 150130Z 14014KT 23/11 A2991 RMK A01 T02250110  RH  048%=      5-min Rain = 0
KCL1 150131Z 13014KT 23/11 A2991 RMK A01 T02250110  RH  048%=      5-min Rain = 0
KCL1 150132Z 14013KT 22/11 A2991 RMK A01 T02240110  RH  049%=      5-min Rain = 0
KCL1 150133Z 14013KT 22/11 A2991 RMK A01 T02230110  RH  049%=      5-min Rain = 0
KCL1 150134Z 13011KT 22/11 A2992 RMK A01 T02230111  RH  049%=      5-min Rain = 0
KCL1 150135Z 14011G17KT 22/11 A2992 RMK A01 T02220111  RH  049%=      5-min Rain = 0
KCL1 150136Z 14013KT 22/11 A2991 RMK A01 T02220112  RH  050%=      5-min Rain = 0
KCL1 150137Z 14012KT 22/11 A2991 RMK A01 T02210112  RH  050%=      5-min Rain = 0
KCL1 150138Z 14009KT 22/11 A2992 RMK A01 T02210112  RH  050%=      5-min Rain = 0
KCL1 150139Z 14012KT 22/11 A2991 RMK A01 T02200113  RH  051%=      5-min Rain = 0
KCL1 150140Z 13013G18KT 22/11 A2991 RMK A01 T02190113  RH  051%=      5-min Rain = 0
KCL1 150141Z 14014KT 22/11 A2992 RMK A01 T02180113  RH  051%=      5-min Rain = 0
KCL1 150142Z 14013KT 22/11 A2992 RMK A01 T02180113  RH  051%=      5-min Rain = 0
KCL1 150143Z 14017KT 22/11 A2992 RMK A01 T02180114  RH  052%=      5-min Rain = 0
KCL1 150144Z 13013G18KT 22/11 A2992 RMK A01 T02170114  RH  052%=      5-min Rain = 0
KCL1 150145Z 13017KT 22/11 A2992 RMK A01 T02170114  RH  052%=      5-min Rain = 0
KCL1 150146Z 13013KT 22/11 A2992 RMK A01 T02170114  RH  052%=      5-min Rain = 0
KCL1 150147Z 13016G22KT 22/11 A2992 RMK A01 T02160114  RH  052%=      5-min Rain = 0
KCL1 150148Z 13019G24KT 22/11 A2992 RMK A01 T02160114  RH  052%=      5-min Rain = 0
KCL1 150149Z 13018KT 22/12 A2992 RMK A01 T02150115  RH  053%=      5-min Rain = 0
KCL1 150150Z 12018G23KT 22/12 A2992 RMK A01 T02160116  RH  053%=      5-min Rain = 0
KCL1 150151Z 13019G25KT 22/12 A2992 RMK A01 T02150117  RH  054%=      5-min Rain = 0
KCL1 150152Z 13016G23KT 21/12 A2992 RMK A01 T02140117  RH  054%=      5-min Rain = 0
KCL1 150153Z 13013G21KT 21/12 A2992 RMK A01 T02140118  RH  054%=      5-min Rain = 0
KCL1 150154Z 13012KT 21/12 A2992 RMK A01 T02130118  RH  055%=      5-min Rain = 0
KCL1 150155Z 13015G20KT 21/12 A2992 RMK A01 T02130119  RH  055%=      5-min Rain = 0
KCL1 150156Z 13014G19KT 21/12 A2992 RMK A01 T02120120  RH  055%=      5-min Rain = 0
KCL1 150157Z 13016KT 21/12 A2992 RMK A01 T02120121  RH  056%=      5-min Rain = 0
KCL1 150158Z 12018KT 21/12 A2992 RMK A01 T02120122  RH  056%=      5-min Rain = 0
KCL1 150159Z 13013KT 21/12 A2992 RMK A01 T02120122  RH  057%=      5-min Rain = 0
KCL1 150200Z 12016KT 21/12 A2992 RMK A01 T02110122  RH  057%=      5-min Rain = 0
KCL1 150201Z 13013KT 21/12 A2992 RMK A01 T02110123  RH  057%=      5-min Rain = 0
KCL1 150202Z 13013KT 21/12 A2992 RMK A01 T02110123  RH  057%=      5-min Rain = 0
KCL1 150203Z 14016G22KT 21/12 A2992 RMK A01 T02100123  RH  057%=      5-min Rain = 0
KCL1 150204Z 13016KT 21/12 A2992 RMK A01 T02100123  RH  057%=      5-min Rain = 0
KCL1 150205Z 13015KT 21/12 A2992 RMK A01 T02100123  RH  058%=      5-min Rain = 0
KCL1 150206Z 13016KT 21/12 A2992 RMK A01 T02100123  RH  058%=      5-min Rain = 0
KCL1 150207Z 13019KT 21/12 A2992 RMK A01 T02100123  RH  058%=      5-min Rain = 0
KCL1 150208Z 13018KT 21/12 A2992 RMK A01 T02090123  RH  058%=      5-min Rain = 0
KCL1 150209Z 13014KT 21/12 A2992 RMK A01 T02090122  RH  057%=      5-min Rain = 0
KCL1 150210Z 12017KT 21/12 A2992 RMK A01 T02090122  RH  057%=      5-min Rain = 0
KCL1 150211Z 12016KT 21/12 A2992 RMK A01 T02100122  RH  057%=      5-min Rain = 0
KCL1 150212Z 13013G18KT 21/12 A2992 RMK A01 T02090122  RH  057%=      5-min Rain = 0
KCL1 150213Z 12017KT 21/12 A2992 RMK A01 T02090122  RH  057%=      5-min Rain = 0
KCL1 150214Z 13016G22KT 21/12 A2992 RMK A01 T02090122  RH  057%=      5-min Rain = 0
KCL1 150215Z 13013KT 21/12 A2992 RMK A01 T02100122  RH  057%=      5-min Rain = 0
KCL1 150216Z 12013KT 21/12 A2992 RMK A01 T02090121  RH  057%=      5-min Rain = 0
KCL1 150217Z 12015KT 21/12 A2992 RMK A01 T02090122  RH  057%=      5-min Rain = 0
KCL1 150218Z 13014G19KT 21/12 A2992 RMK A01 T02090121  RH  057%=      5-min Rain = 0
KCL1 150219Z 13014KT 21/12 A2992 RMK A01 T02090121  RH  057%=      5-min Rain = 0
KCL1 150220Z 12014G19KT 21/12 A2992 RMK A01 T02090121  RH  057%=      5-min Rain = 0
KCL1 150221Z 13012KT 21/12 A2993 RMK A01 T02090120  RH  057%=      5-min Rain = 0
KCL1 150222Z 13013KT 21/12 A2993 RMK A01 T02090120  RH  057%=      5-min Rain = 0
KCL1 150223Z 13011KT 21/12 A2993 RMK A01 T02090120  RH  057%=      5-min Rain = 0
KCL1 150224Z 13011KT 21/12 A2993 RMK A01 T02090121  RH  057%=      5-min Rain = 0
KCL1 150225Z 13010G15KT 21/12 A2993 RMK A01 T02090120  RH  057%=      5-min Rain = 0
KCL1 150226Z 13011KT 21/12 A2993 RMK A01 T02080121  RH  057%=      5-min Rain = 0
KCL1 150227Z 14013KT 21/12 A2993 RMK A01 T02080121  RH  057%=      5-min Rain = 0
KCL1 150228Z 14016G21KT 21/12 A2993 RMK A01 T02090121  RH  057%=      5-min Rain = 0
KCL1 150229Z 13013KT 21/12 A2993 RMK A01 T02090121  RH  057%=      5-min Rain = 0
KCL1 150230Z 13013G18KT 21/12 A2993 RMK A01 T02090120  RH  057%=      5-min Rain = 0
KCL1 150231Z 13015KT 21/12 A2993 RMK A01 T02090120  RH  057%=      5-min Rain = 0
KCL1 150232Z 13014KT 21/12 A2993 RMK A01 T02090120  RH  057%=      5-min Rain = 0
KCL1 150233Z 13016G22KT 21/12 A2993 RMK A01 T02080118  RH  056%=      5-min Rain = 0
KCL1 150234Z 14015G21KT 21/12 A2993 RMK A01 T02090117  RH  056%=      5-min Rain = 0
KCL1 150235Z 14017KT 21/12 A2993 RMK A01 T02090117  RH  056%=      5-min Rain = 0
KCL1 150236Z 13012G18KT 21/12 A2993 RMK A01 T02090117  RH  055%=      5-min Rain = 0
KCL1 150237Z 14012KT 21/12 A2993 RMK A01 T02090117  RH  055%=      5-min Rain = 0
KCL1 150238Z 14013KT 21/12 A2993 RMK A01 T02090117  RH  056%=      5-min Rain = 0
KCL1 150239Z 13013KT 21/12 A2993 RMK A01 T02090118  RH  056%=      5-min Rain = 0
KCL1 150240Z 14015KT 21/12 A2993 RMK A01 T02080116  RH  056%=      5-min Rain = 0
KCL1 150241Z 14014G19KT 21/12 A2993 RMK A01 T02080116  RH  056%=      5-min Rain = 0
KCL1 150242Z 13012KT 21/12 A2993 RMK A01 T02090116  RH  055%=      5-min Rain = 0
KCL1 150243Z 14012KT 21/12 A2993 RMK A01 T02090116  RH  055%=      5-min Rain = 0
KCL1 150244Z 14011KT 21/12 A2993 RMK A01 T02080116  RH  056%=      5-min Rain = 0
KCL1 150245Z 14012KT 21/12 A2993 RMK A01 T02080116  RH  056%=      5-min Rain = 0
KCL1 150246Z 14014KT 21/12 A2993 RMK A01 T02080116  RH  056%=      5-min Rain = 0
KCL1 150247Z 14013KT 21/12 A2994 RMK A01 T02080116  RH  056%=      5-min Rain = 0
KCL1 150248Z 14013G18KT 21/12 A2994 RMK A01 T02080116  RH  055%=      5-min Rain = 0
KCL1 150249Z 14010KT 21/12 A2994 RMK A01 T02080116  RH  055%=      5-min Rain = 0
KCL1 150250Z 14011KT 21/12 A2994 RMK A01 T02080116  RH  055%=      5-min Rain = 0
KCL1 150251Z 14010KT 21/12 A2994 RMK A01 T02080116  RH  055%=      5-min Rain = 0
KCL1 150252Z 14010KT 21/12 A2994 RMK A01 T02080116  RH  056%=      5-min Rain = 0
KCL1 150253Z 14010KT 21/12 A2994 RMK A01 T02070116  RH  056%=      5-min Rain = 0
KCL1 150254Z 14011KT 21/12 A2994 RMK A01 T02070116  RH  056%=      5-min Rain = 0
KCL1 150255Z 14010KT 21/12 A2994 RMK A01 T02060115  RH  056%=      5-min Rain = 0
KCL1 150256Z 13011KT 21/12 A2994 RMK A01 T02060115  RH  056%=      5-min Rain = 0
KCL1 150257Z 14011KT 21/12 A2994 RMK A01 T02060115  RH  056%=      5-min Rain = 0
KCL1 150258Z 14010KT 21/12 A2994 RMK A01 T02060115  RH  056%=      5-min Rain = 0
KCL1 150259Z 14011KT 21/12 A2994 RMK A01 T02050115  RH  056%=      5-min Rain = 0
KCL1 150300Z 14008KT 21/11 A2994 RMK A01 T02050114  RH  056%=      5-min Rain = 0
KCL1 150301Z 14010KT 21/11 A2994 RMK A01 T02050114  RH  056%=      5-min Rain = 0
KCL1 150302Z 14010KT 21/11 A2994 RMK A01 T02050113  RH  056%=      5-min Rain = 0
KCL1 150303Z 13011G17KT 20/11 A2994 RMK A01 T02040113  RH  056%=      5-min Rain = 0
KCL1 150304Z 14012KT 20/11 A2994 RMK A01 T02040113  RH  056%=      5-min Rain = 0
KCL1 150305Z 14011KT 20/11 A2994 RMK A01 T02040112  RH  055%=      5-min Rain = 0
KCL1 150306Z 14014KT 20/11 A2994 RMK A01 T02040112  RH  055%=      5-min Rain = 0
KCL1 150307Z 14012KT 20/11 A2994 RMK A01 T02040112  RH  055%=      5-min Rain = 0
KCL1 150308Z 14012G18KT 20/11 A2994 RMK A01 T02040112  RH  055%=      5-min Rain = 0
KCL1 150309Z 13014G19KT 20/11 A2994 RMK A01 T02040110  RH  055%=      5-min Rain = 0
KCL1 150310Z 14013KT 21/11 A2994 RMK A01 T02050109  RH  054%=      5-min Rain = 0
KCL1 150311Z 14013KT 21/11 A2994 RMK A01 T02050110  RH  054%=      5-min Rain = 0
KCL1 150312Z 13015KT 21/11 A2994 RMK A01 T02050109  RH  054%=      5-min Rain = 0
KCL1 150313Z 14012KT 21/11 A2995 RMK A01 T02050108  RH  054%=      5-min Rain = 0
KCL1 150314Z 14013G18KT 21/11 A2994 RMK A01 T02050109  RH  054%=      5-min Rain = 0
KCL1 150315Z 14011KT 21/11 A2994 RMK A01 T02050109  RH  054%=      5-min Rain = 0
KCL1 150316Z 14010KT 20/11 A2995 RMK A01 T02040109  RH  054%=      5-min Rain = 0
KCL1 150317Z 14012KT 20/11 A2994 RMK A01 T02040108  RH  054%=      5-min Rain = 0
KCL1 150318Z 14012KT 20/11 A2994 RMK A01 T02040108  RH  054%=      5-min Rain = 0
KCL1 150319Z 14015KT 20/11 A2994 RMK A01 T02040107  RH  054%=      5-min Rain = 0
KCL1 150320Z 14014KT 20/11 A2994 RMK A01 T02040107  RH  054%=      5-min Rain = 0
KCL1 150321Z 13012G18KT 20/11 A2994 RMK A01 T02040106  RH  053%=      5-min Rain = 0
KCL1 150322Z 14015KT 20/11 A2994 RMK A01 T02040105  RH  053%=      5-min Rain = 0
KCL1 150323Z 14014KT 21/11 A2994 RMK A01 T02050105  RH  053%=      5-min Rain = 0
KCL1 150324Z 14015G20KT 21/10 A2994 RMK A01 T02050104  RH  052%=      5-min Rain = 0
KCL1 150325Z 14012KT 21/11 A2994 RMK A01 T02050105  RH  053%=      5-min Rain = 0
KCL1 150326Z 14013KT 21/11 A2994 RMK A01 T02050106  RH  053%=      5-min Rain = 0
KCL1 150327Z 14013KT 20/11 A2994 RMK A01 T02040106  RH  053%=      5-min Rain = 0
KCL1 150328Z 14011G16KT 20/11 A2994 RMK A01 T02040105  RH  053%=      5-min Rain = 0
KCL1 150329Z 14012G17KT 20/11 A2994 RMK A01 T02030106  RH  053%=      5-min Rain = 0
KCL1 150330Z 14012KT 20/11 A2994 RMK A01 T02030105  RH  053%=      5-min Rain = 0
KCL1 150331Z 14015KT 20/11 A2994 RMK A01 T02030105  RH  053%=      5-min Rain = 0
KCL1 150332Z 14012KT 20/10 A2994 RMK A01 T02030104  RH  053%=      5-min Rain = 0
KCL1 150333Z 14014G19KT 20/10 A2994 RMK A01 T02030104  RH  053%=      5-min Rain = 0
KCL1 150334Z 14013KT 20/10 A2994 RMK A01 T02030104  RH  053%=      5-min Rain = 0
KCL1 150335Z 14013KT 20/10 A2994 RMK A01 T02030104  RH  053%=      5-min Rain = 0
KCL1 150336Z 14011KT 20/11 A2994 RMK A01 T02030105  RH  053%=      5-min Rain = 0
KCL1 150337Z 14012KT 20/11 A2994 RMK A01 T02030105  RH  053%=      5-min Rain = 0
KCL1 150338Z 14013KT 20/10 A2995 RMK A01 T02020104  RH  053%=      5-min Rain = 0
KCL1 150339Z 14013KT 20/10 A2994 RMK A01 T02020104  RH  053%=      5-min Rain = 0
KCL1 150340Z 14012KT 20/11 A2995 RMK A01 T02020105  RH  053%=      5-min Rain = 0
KCL1 150341Z 15013KT 20/10 A2995 RMK A01 T02020104  RH  053%=      5-min Rain = 0
KCL1 150342Z 15016KT 20/11 A2995 RMK A01 T02020105  RH  053%=      5-min Rain = 0
KCL1 150343Z 15014G19KT 20/11 A2995 RMK A01 T02020105  RH  054%=      5-min Rain = 0
KCL1 150344Z 15013G18KT 20/11 A2995 RMK A01 T02020105  RH  054%=      5-min Rain = 0
KCL1 150345Z 15014KT 20/11 A2995 RMK A01 T02020105  RH  054%=      5-min Rain = 0
KCL1 150346Z 15014KT 20/11 A2995 RMK A01 T02020105  RH  054%=      5-min Rain = 0
KCL1 150347Z 15014G19KT 20/11 A2995 RMK A01 T02020106  RH  054%=      5-min Rain = 0
KCL1 150348Z 15012KT 20/11 A2995 RMK A01 T02020106  RH  054%=      5-min Rain = 0
KCL1 150349Z 14013KT 20/11 A2995 RMK A01 T02010106  RH  054%=      5-min Rain = 0
KCL1 150350Z 14013KT 20/11 A2995 RMK A01 T02010106  RH  054%=      5-min Rain = 0
KCL1 150351Z 14012G17KT 20/11 A2995 RMK A01 T02010106  RH  054%=      5-min Rain = 0
KCL1 150352Z 14015KT 20/11 A2995 RMK A01 T02010105  RH  054%=      5-min Rain = 0
KCL1 150353Z 14012KT 20/11 A2995 RMK A01 T02010105  RH  054%=      5-min Rain = 0
KCL1 150354Z 14014KT 20/11 A2995 RMK A01 T02010105  RH  054%=      5-min Rain = 0
KCL1 150355Z 14015KT 20/11 A2995 RMK A01 T02010105  RH  054%=      5-min Rain = 0
KCL1 150356Z 14012KT 20/11 A2995 RMK A01 T02000105  RH  054%=      5-min Rain = 0
KCL1 150357Z 14014KT 20/11 A2995 RMK A01 T02000105  RH  054%=      5-min Rain = 0
KCL1 150358Z 14012KT 20/11 A2995 RMK A01 T01990105  RH  055%=      5-min Rain = 0
KCL1 150359Z 15013KT 20/11 A2995 RMK A01 T01990105  RH  055%=      5-min Rain = 0
KCL1 150400Z 14011KT 20/11 A2995 RMK A01 T01990105  RH  055%=      5-min Rain = 0
KCL1 150401Z 14011KT 20/11 A2995 RMK A01 T01990106  RH  055%=      5-min Rain = 0
KCL1 150402Z 15011KT 20/11 A2995 RMK A01 T01980106  RH  055%=      5-min Rain = 0
KCL1 150403Z 15010KT 20/11 A2995 RMK A01 T01980106  RH  055%=      5-min Rain = 0
KCL1 150404Z 15012KT 20/11 A2995 RMK A01 T01970106  RH  056%=      5-min Rain = 0
KCL1 150405Z 15011KT 20/11 A2995 RMK A01 T01970106  RH  056%=      5-min Rain = 0
KCL1 150406Z 15012KT 20/11 A2995 RMK A01 T01970106  RH  056%=      5-min Rain = 0
KCL1 150407Z 15010KT 20/11 A2995 RMK A01 T01970106  RH  056%=      5-min Rain = 0
KCL1 150408Z 15011KT 20/11 A2995 RMK A01 T01970106  RH  056%=      5-min Rain = 0
KCL1 150409Z 15012KT 20/11 A2995 RMK A01 T01970106  RH  056%=      5-min Rain = 0
KCL1 150410Z 14014KT 20/11 A2995 RMK A01 T01970106  RH  056%=      5-min Rain = 0
KCL1 150411Z 14011KT 20/11 A2995 RMK A01 T01970106  RH  056%=      5-min Rain = 0
KCL1 150412Z 14009KT 20/11 A2995 RMK A01 T01970106  RH  056%=      5-min Rain = 0
KCL1 150413Z 14013KT 20/11 A2995 RMK A01 T01970106  RH  056%=      5-min Rain = 0
KCL1 150414Z 14010KT 20/11 A2995 RMK A01 T01970106  RH  056%=      5-min Rain = 0
KCL1 150415Z 14010KT 20/11 A2995 RMK A01 T01970106  RH  056%=      5-min Rain = 0
KCL1 150416Z 14010KT 20/11 A2995 RMK A01 T01960106  RH  056%=      5-min Rain = 0
KCL1 150417Z 14009KT 20/11 A2995 RMK A01 T01960105  RH  056%=      5-min Rain = 0
KCL1 150418Z 14007KT 20/11 A2995 RMK A01 T01960105  RH  056%=      5-min Rain = 0
KCL1 150419Z 13007KT 20/11 A2995 RMK A01 T01950105  RH  056%=      5-min Rain = 0
KCL1 150420Z 14012KT 20/11 A2995 RMK A01 T01950105  RH  056%=      5-min Rain = 0
KCL1 150421Z 15010KT 20/10 A2995 RMK A01 T01950104  RH  056%=      5-min Rain = 0
KCL1 150422Z 14009KT 20/10 A2995 RMK A01 T01950104  RH  056%=      5-min Rain = 0
KCL1 150423Z 13007KT 20/10 A2995 RMK A01 T01950104  RH  055%=      5-min Rain = 0
KCL1 150424Z 13008KT 20/10 A2995 RMK A01 T01960104  RH  056%=      5-min Rain = 0
KCL1 150425Z 14008KT 20/10 A2995 RMK A01 T01950104  RH  056%=      5-min Rain = 0
KCL1 150426Z 14009KT 20/10 A2995 RMK A01 T01950104  RH  056%=      5-min Rain = 0
KCL1 150427Z 13009KT 20/10 A2995 RMK A01 T01950104  RH  056%=      5-min Rain = 0
KCL1 150428Z 15010KT 20/10 A2995 RMK A01 T01950104  RH  056%=      5-min Rain = 0
KCL1 150429Z 14010KT 20/10 A2995 RMK A01 T01950103  RH  055%=      5-min Rain = 0
KCL1 150430Z 14010KT 20/10 A2995 RMK A01 T01950103  RH  055%=      5-min Rain = 0
KCL1 150431Z 14008KT 20/10 A2995 RMK A01 T01950102  RH  055%=      5-min Rain = 0
KCL1 150432Z 14011KT 20/10 A2996 RMK A01 T01950102  RH  055%=      5-min Rain = 0
KCL1 150433Z 15008KT 20/10 A2996 RMK A01 T01960102  RH  055%=      5-min Rain = 0
KCL1 150434Z 15010KT 20/10 A2996 RMK A01 T01960103  RH  055%=      5-min Rain = 0
KCL1 150435Z 15011KT 20/10 A2996 RMK A01 T01970102  RH  054%=      5-min Rain = 0
KCL1 150436Z 15008KT 20/10 A2996 RMK A01 T01970102  RH  054%=      5-min Rain = 0
KCL1 150437Z 14007KT 20/10 A2996 RMK A01 T01970102  RH  054%=      5-min Rain = 0
KCL1 150438Z 14009KT 20/10 A2996 RMK A01 T01970102  RH  054%=      5-min Rain = 0
KCL1 150439Z 14008KT 20/10 A2996 RMK A01 T01970103  RH  054%=      5-min Rain = 0
KCL1 150440Z 13009KT 20/10 A2996 RMK A01 T01970103  RH  055%=      5-min Rain = 0
KCL1 150441Z 13009KT 20/10 A2996 RMK A01 T01970102  RH  055%=      5-min Rain = 0
KCL1 150442Z 13010KT 20/10 A2996 RMK A01 T01960102  RH  055%=      5-min Rain = 0
KCL1 150443Z 14010KT 20/10 A2996 RMK A01 T01960103  RH  055%=      5-min Rain = 0
KCL1 150444Z 13010KT 20/10 A2995 RMK A01 T01950102  RH  055%=      5-min Rain = 0
KCL1 150445Z 13008KT 20/10 A2995 RMK A01 T01950102  RH  055%=      5-min Rain = 0
KCL1 150446Z 13008KT 19/10 A2995 RMK A01 T01940102  RH  055%=      5-min Rain = 0
KCL1 150447Z 13008KT 19/10 A2995 RMK A01 T01940102  RH  055%=      5-min Rain = 0
KCL1 150448Z 13009KT 19/10 A2995 RMK A01 T01930102  RH  056%=      5-min Rain = 0
KCL1 150449Z 13008KT 19/10 A2995 RMK A01 T01930102  RH  056%=      5-min Rain = 0
KCL1 150450Z 14009KT 19/10 A2996 RMK A01 T01920102  RH  056%=      5-min Rain = 0
KCL1 150451Z 14009KT 19/10 A2996 RMK A01 T01920102  RH  056%=      5-min Rain = 0
KCL1 150452Z 14009KT 19/10 A2996 RMK A01 T01920102  RH  056%=      5-min Rain = 0
KCL1 150453Z 14009KT 19/10 A2996 RMK A01 T01920102  RH  056%=      5-min Rain = 0
KCL1 150454Z 14008KT 19/10 A2996 RMK A01 T01920102  RH  056%=      5-min Rain = 0
KCL1 150455Z 15008KT 19/10 A2996 RMK A01 T01910102  RH  056%=      5-min Rain = 0
KCL1 150456Z 15009KT 19/10 A2996 RMK A01 T01910102  RH  056%=      5-min Rain = 0
KCL1 150457Z 15010KT 19/10 A2996 RMK A01 T01900102  RH  056%=      5-min Rain = 0
KCL1 150458Z 15011KT 19/10 A2996 RMK A01 T01900102  RH  056%=      5-min Rain = 0
KCL1 150459Z 14009KT 19/10 A2996 RMK A01 T01910102  RH  056%=      5-min Rain = 0

Page generated in 0.1645 seconds.